<?xml version='1.0' encoding='UTF-8'?><gpx version="1.1" creator="JPX - https://github.com/jenetics/jpx" xmlns="http://www.topografix.com/GPX/1/1"><trk><trkseg><trkpt lat="45.1059838" lon="7.5436955"><ele>330.0</ele><time>2026-04-14T16:52:24.041Z</time></trkpt><trkpt lat="45.1059696" lon="7.5435814"><ele>330.0</ele><time>2026-04-14T16:52:26.048Z</time></trkpt><trkpt lat="45.1059661" lon="7.5434515"><ele>330.0</ele><time>2026-04-14T16:52:28.042Z</time></trkpt><trkpt lat="45.1059529" lon="7.543329"><ele>330.0</ele><time>2026-04-14T16:52:30.041Z</time></trkpt><trkpt lat="45.1059621" lon="7.5432203"><ele>330.0</ele><time>2026-04-14T16:52:32.041Z</time></trkpt><trkpt lat="45.1059867" lon="7.5431121"><ele>330.0</ele><time>2026-04-14T16:52:34.047Z</time></trkpt><trkpt lat="45.1060177" lon="7.5430136"><ele>330.0</ele><time>2026-04-14T16:52:36.104Z</time></trkpt><trkpt lat="45.1060692" lon="7.5429429"><ele>330.0</ele><time>2026-04-14T16:52:38.048Z</time></trkpt><trkpt lat="45.1061159" lon="7.5428581"><ele>330.0</ele><time>2026-04-14T16:52:40.049Z</time></trkpt><trkpt lat="45.1061649" lon="7.5427442"><ele>330.0</ele><time>2026-04-14T16:52:42.02Z</time></trkpt><trkpt lat="45.1062194" lon="7.5426397"><ele>330.0</ele><time>2026-04-14T16:52:44.017Z</time></trkpt><trkpt lat="45.1062767" lon="7.5425469"><ele>330.0</ele><time>2026-04-14T16:52:46.015Z</time></trkpt><trkpt lat="45.1063465" lon="7.5424722"><ele>330.2</ele><time>2026-04-14T16:52:48.02Z</time></trkpt><trkpt lat="45.1064058" lon="7.5423736"><ele>330.4</ele><time>2026-04-14T16:52:50.023Z</time></trkpt><trkpt lat="45.1064613" lon="7.5422675"><ele>330.6</ele><time>2026-04-14T16:52:52.022Z</time></trkpt><trkpt lat="45.1065654" lon="7.5421929"><ele>330.8</ele><time>2026-04-14T16:52:54.015Z</time></trkpt><trkpt lat="45.1066469" lon="7.5421079"><ele>331.0</ele><time>2026-04-14T16:52:56.018Z</time></trkpt><trkpt lat="45.1067355" lon="7.5420094"><ele>330.5</ele><time>2026-04-14T16:52:58.016Z</time></trkpt><trkpt lat="45.1068219" lon="7.5419087"><ele>330.0</ele><time>2026-04-14T16:53:00.015Z</time></trkpt><trkpt lat="45.1069043" lon="7.5417995"><ele>329.5</ele><time>2026-04-14T16:53:02.019Z</time></trkpt><trkpt lat="45.106997" lon="7.5416884"><ele>329.0</ele><time>2026-04-14T16:53:04.022Z</time></trkpt><trkpt lat="45.107095" lon="7.5415789"><ele>329.0</ele><time>2026-04-14T16:53:06.042Z</time></trkpt><trkpt lat="45.1071781" lon="7.5414553"><ele>329.0</ele><time>2026-04-14T16:53:08.025Z</time></trkpt><trkpt lat="45.1072773" lon="7.5413567"><ele>329.0</ele><time>2026-04-14T16:53:10.028Z</time></trkpt><trkpt lat="45.1073834" lon="7.5412612"><ele>329.0</ele><time>2026-04-14T16:53:12.027Z</time></trkpt><trkpt lat="45.1074446" lon="7.5412288"><ele>329.0</ele><time>2026-04-14T16:53:13.024Z</time></trkpt><trkpt lat="45.1075522" lon="7.5411432"><ele>328.6</ele><time>2026-04-14T16:53:15.022Z</time></trkpt><trkpt lat="45.1076088" lon="7.5410951"><ele>328.2</ele><time>2026-04-14T16:53:16.019Z</time></trkpt><trkpt lat="45.1077222" lon="7.5410175"><ele>327.8</ele><time>2026-04-14T16:53:18.021Z</time></trkpt><trkpt lat="45.1077747" lon="7.5409655"><ele>327.40000000000003</ele><time>2026-04-14T16:53:19.026Z</time></trkpt><trkpt lat="45.107865" lon="7.5408888"><ele>327.0</ele><time>2026-04-14T16:53:21.03Z</time></trkpt><trkpt lat="45.1079611" lon="7.540823"><ele>327.0</ele><time>2026-04-14T16:53:23.027Z</time></trkpt><trkpt lat="45.1080667" lon="7.5407633"><ele>327.0</ele><time>2026-04-14T16:53:25.026Z</time></trkpt><trkpt lat="45.1081523" lon="7.5406886"><ele>327.0</ele><time>2026-04-14T16:53:27.03Z</time></trkpt><trkpt lat="45.108235" lon="7.5406577"><ele>327.0</ele><time>2026-04-14T16:53:29.022Z</time></trkpt><trkpt lat="45.1083025" lon="7.5406247"><ele>327.0</ele><time>2026-04-14T16:53:35.028Z</time></trkpt><trkpt lat="45.1083791" lon="7.5405484"><ele>327.0</ele><time>2026-04-14T16:53:38.023Z</time></trkpt><trkpt lat="45.1084321" lon="7.5404598"><ele>327.0</ele><time>2026-04-14T16:53:40.029Z</time></trkpt><trkpt lat="45.1085006" lon="7.5403709"><ele>327.0</ele><time>2026-04-14T16:53:42.025Z</time></trkpt><trkpt lat="45.1085626" lon="7.5402846"><ele>327.0</ele><time>2026-04-14T16:53:44.021Z</time></trkpt><trkpt lat="45.1086339" lon="7.5402063"><ele>327.0</ele><time>2026-04-14T16:53:46.022Z</time></trkpt><trkpt lat="45.1087047" lon="7.5401298"><ele>327.0</ele><time>2026-04-14T16:53:48.024Z</time></trkpt><trkpt lat="45.1087805" lon="7.5400466"><ele>327.40000000000003</ele><time>2026-04-14T16:53:50.014Z</time></trkpt><trkpt lat="45.1088437" lon="7.5399568"><ele>327.8</ele><time>2026-04-14T16:53:52.023Z</time></trkpt><trkpt lat="45.108911" lon="7.5398697"><ele>328.2</ele><time>2026-04-14T16:53:54.03Z</time></trkpt><trkpt lat="45.1089792" lon="7.5397873"><ele>328.6</ele><time>2026-04-14T16:53:56.034Z</time></trkpt><trkpt lat="45.1090645" lon="7.5397171"><ele>329.0</ele><time>2026-04-14T16:53:58.035Z</time></trkpt><trkpt lat="45.1091423" lon="7.5396502"><ele>329.0</ele><time>2026-04-14T16:54:00.04Z</time></trkpt><trkpt lat="45.1092025" lon="7.5395593"><ele>329.0</ele><time>2026-04-14T16:54:02.039Z</time></trkpt><trkpt lat="45.1092727" lon="7.5394709"><ele>329.0</ele><time>2026-04-14T16:54:04.038Z</time></trkpt><trkpt lat="45.1093543" lon="7.5393952"><ele>329.0</ele><time>2026-04-14T16:54:06.044Z</time></trkpt><trkpt lat="45.1094369" lon="7.5393093"><ele>329.0</ele><time>2026-04-14T16:54:08.041Z</time></trkpt><trkpt lat="45.10952" lon="7.5392297"><ele>329.0</ele><time>2026-04-14T16:54:10.026Z</time></trkpt><trkpt lat="45.1095799" lon="7.5391337"><ele>329.0</ele><time>2026-04-14T16:54:12.021Z</time></trkpt><trkpt lat="45.1096431" lon="7.5390508"><ele>329.0</ele><time>2026-04-14T16:54:14.022Z</time></trkpt><trkpt lat="45.1097315" lon="7.5389779"><ele>329.0</ele><time>2026-04-14T16:54:16.027Z</time></trkpt><trkpt lat="45.1098135" lon="7.5388909"><ele>329.0</ele><time>2026-04-14T16:54:18.024Z</time></trkpt><trkpt lat="45.1098801" lon="7.5388012"><ele>329.2</ele><time>2026-04-14T16:54:20.026Z</time></trkpt><trkpt lat="45.1099702" lon="7.5387119"><ele>329.4</ele><time>2026-04-14T16:54:22.033Z</time></trkpt><trkpt lat="45.1100487" lon="7.5386476"><ele>329.6</ele><time>2026-04-14T16:54:24.036Z</time></trkpt><trkpt lat="45.110132" lon="7.5385848"><ele>329.8</ele><time>2026-04-14T16:54:26.031Z</time></trkpt><trkpt lat="45.1102223" lon="7.5385227"><ele>330.0</ele><time>2026-04-14T16:54:28.035Z</time></trkpt><trkpt lat="45.1103033" lon="7.5384446"><ele>330.0</ele><time>2026-04-14T16:54:30.037Z</time></trkpt><trkpt lat="45.1103927" lon="7.5383681"><ele>330.0</ele><time>2026-04-14T16:54:32.038Z</time></trkpt><trkpt lat="45.1104696" lon="7.5382923"><ele>330.0</ele><time>2026-04-14T16:54:34.037Z</time></trkpt><trkpt lat="45.1105395" lon="7.5382066"><ele>330.0</ele><time>2026-04-14T16:54:36.051Z</time></trkpt><trkpt lat="45.1106145" lon="7.5381171"><ele>330.0</ele><time>2026-04-14T16:54:38.037Z</time></trkpt><trkpt lat="45.1106964" lon="7.5380174"><ele>329.8</ele><time>2026-04-14T16:54:40.029Z</time></trkpt><trkpt lat="45.110763" lon="7.5379168"><ele>329.6</ele><time>2026-04-14T16:54:42.033Z</time></trkpt><trkpt lat="45.1108259" lon="7.5377967"><ele>329.4</ele><time>2026-04-14T16:54:44.03Z</time></trkpt><trkpt lat="45.1108944" lon="7.5376698"><ele>329.2</ele><time>2026-04-14T16:54:46.028Z</time></trkpt><trkpt lat="45.1109536" lon="7.537533"><ele>329.0</ele><time>2026-04-14T16:54:48.032Z</time></trkpt><trkpt lat="45.111021" lon="7.5374102"><ele>329.0</ele><time>2026-04-14T16:54:50.032Z</time></trkpt><trkpt lat="45.1111016" lon="7.5373041"><ele>329.0</ele><time>2026-04-14T16:54:52.029Z</time></trkpt><trkpt lat="45.111188" lon="7.5372027"><ele>329.0</ele><time>2026-04-14T16:54:54.033Z</time></trkpt><trkpt lat="45.111289" lon="7.5371042"><ele>329.0</ele><time>2026-04-14T16:54:56.026Z</time></trkpt><trkpt lat="45.1113923" lon="7.5370251"><ele>329.0</ele><time>2026-04-14T16:54:58.032Z</time></trkpt><trkpt lat="45.1114837" lon="7.5369567"><ele>329.0</ele><time>2026-04-14T16:55:00.029Z</time></trkpt><trkpt lat="45.1115878" lon="7.5368872"><ele>329.0</ele><time>2026-04-14T16:55:02.034Z</time></trkpt><trkpt lat="45.1116884" lon="7.5368366"><ele>329.0</ele><time>2026-04-14T16:55:04.035Z</time></trkpt><trkpt lat="45.1117955" lon="7.5367926"><ele>329.0</ele><time>2026-04-14T16:55:06.055Z</time></trkpt><trkpt lat="45.1118576" lon="7.5367761"><ele>328.6</ele><time>2026-04-14T16:55:07.042Z</time></trkpt><trkpt lat="45.1119551" lon="7.536732"><ele>328.2</ele><time>2026-04-14T16:55:09.042Z</time></trkpt><trkpt lat="45.1120544" lon="7.536668"><ele>327.8</ele><time>2026-04-14T16:55:11.039Z</time></trkpt><trkpt lat="45.112154" lon="7.5365796"><ele>327.40000000000003</ele><time>2026-04-14T16:55:13.032Z</time></trkpt><trkpt lat="45.1122517" lon="7.5365145"><ele>327.0</ele><time>2026-04-14T16:55:15.035Z</time></trkpt><trkpt lat="45.1123438" lon="7.5364509"><ele>327.20000000000005</ele><time>2026-04-14T16:55:17.031Z</time></trkpt><trkpt lat="45.1124386" lon="7.5363834"><ele>327.4</ele><time>2026-04-14T16:55:19.023Z</time></trkpt><trkpt lat="45.1125366" lon="7.5363146"><ele>327.6</ele><time>2026-04-14T16:55:21.03Z</time></trkpt><trkpt lat="45.1126462" lon="7.5362571"><ele>327.79999999999995</ele><time>2026-04-14T16:55:23.027Z</time></trkpt><trkpt lat="45.1127436" lon="7.53621"><ele>328.0</ele><time>2026-04-14T16:55:25.023Z</time></trkpt><trkpt lat="45.1128543" lon="7.5361637"><ele>328.59999999999997</ele><time>2026-04-14T16:55:27.031Z</time></trkpt><trkpt lat="45.11295" lon="7.5360902"><ele>329.2</ele><time>2026-04-14T16:55:29.036Z</time></trkpt><trkpt lat="45.1130483" lon="7.5360162"><ele>329.8</ele><time>2026-04-14T16:55:31.041Z</time></trkpt><trkpt lat="45.1131511" lon="7.5359511"><ele>330.4</ele><time>2026-04-14T16:55:33.044Z</time></trkpt><trkpt lat="45.1132495" lon="7.5358974"><ele>331.0</ele><time>2026-04-14T16:55:35.041Z</time></trkpt><trkpt lat="45.1133439" lon="7.5358255"><ele>331.0</ele><time>2026-04-14T16:55:37.038Z</time></trkpt><trkpt lat="45.1134457" lon="7.5357616"><ele>331.0</ele><time>2026-04-14T16:55:39.026Z</time></trkpt><trkpt lat="45.1135548" lon="7.5356932"><ele>331.0</ele><time>2026-04-14T16:55:41.044Z</time></trkpt><trkpt lat="45.1136655" lon="7.5356161"><ele>331.0</ele><time>2026-04-14T16:55:43.032Z</time></trkpt><trkpt lat="45.1137752" lon="7.5355494"><ele>331.0</ele><time>2026-04-14T16:55:45.032Z</time></trkpt><trkpt lat="45.1138812" lon="7.535478"><ele>331.0</ele><time>2026-04-14T16:55:47.038Z</time></trkpt><trkpt lat="45.1139799" lon="7.5353827"><ele>331.0</ele><time>2026-04-14T16:55:49.039Z</time></trkpt><trkpt lat="45.1140703" lon="7.5352933"><ele>331.0</ele><time>2026-04-14T16:55:51.03Z</time></trkpt><trkpt lat="45.1141556" lon="7.5351789"><ele>331.20000000000005</ele><time>2026-04-14T16:55:53.039Z</time></trkpt><trkpt lat="45.1142371" lon="7.5350881"><ele>331.40000000000003</ele><time>2026-04-14T16:55:55.039Z</time></trkpt><trkpt lat="45.1143181" lon="7.5349755"><ele>331.6</ele><time>2026-04-14T16:55:57.039Z</time></trkpt><trkpt lat="45.1143859" lon="7.5348548"><ele>331.8</ele><time>2026-04-14T16:55:59.026Z</time></trkpt><trkpt lat="45.1144071" lon="7.5347136"><ele>332.0</ele><time>2026-04-14T16:56:01.033Z</time></trkpt><trkpt lat="45.1143825" lon="7.5345627"><ele>332.20000000000005</ele><time>2026-04-14T16:56:03.036Z</time></trkpt><trkpt lat="45.1143069" lon="7.5344469"><ele>332.4</ele><time>2026-04-14T16:56:05.033Z</time></trkpt><trkpt lat="45.1142412" lon="7.5343064"><ele>332.6</ele><time>2026-04-14T16:56:07.035Z</time></trkpt><trkpt lat="45.114195" lon="7.5341775"><ele>332.79999999999995</ele><time>2026-04-14T16:56:09.026Z</time></trkpt><trkpt lat="45.1141657" lon="7.5340671"><ele>333.0</ele><time>2026-04-14T16:56:11.032Z</time></trkpt><trkpt lat="45.1141775" lon="7.5339605"><ele>333.0</ele><time>2026-04-14T16:56:13.028Z</time></trkpt><trkpt lat="45.114217" lon="7.5338659"><ele>333.0</ele><time>2026-04-14T16:56:15.019Z</time></trkpt><trkpt lat="45.1142877" lon="7.5337876"><ele>333.0</ele><time>2026-04-14T16:56:17.022Z</time></trkpt><trkpt lat="45.1143531" lon="7.5336897"><ele>333.0</ele><time>2026-04-14T16:56:19.027Z</time></trkpt><trkpt lat="45.1144284" lon="7.5335995"><ele>333.0</ele><time>2026-04-14T16:56:21.029Z</time></trkpt><trkpt lat="45.1144781" lon="7.5335009"><ele>333.0</ele><time>2026-04-14T16:56:23.027Z</time></trkpt><trkpt lat="45.1144507" lon="7.5334006"><ele>333.0</ele><time>2026-04-14T16:56:25.034Z</time></trkpt><trkpt lat="45.1143926" lon="7.5333023"><ele>333.0</ele><time>2026-04-14T16:56:27.039Z</time></trkpt><trkpt lat="45.1143743" lon="7.5331833"><ele>333.0</ele><time>2026-04-14T16:56:29.03Z</time></trkpt><trkpt lat="45.1143383" lon="7.5330716"><ele>333.0</ele><time>2026-04-14T16:56:31.031Z</time></trkpt><trkpt lat="45.1142971" lon="7.5329467"><ele>333.0</ele><time>2026-04-14T16:56:33.031Z</time></trkpt><trkpt lat="45.1142711" lon="7.5328231"><ele>333.0</ele><time>2026-04-14T16:56:35.033Z</time></trkpt><trkpt lat="45.1142297" lon="7.5327164"><ele>333.0</ele><time>2026-04-14T16:56:37.024Z</time></trkpt><trkpt lat="45.1141831" lon="7.5326209"><ele>333.0</ele><time>2026-04-14T16:56:39.03Z</time></trkpt><trkpt lat="45.1141416" lon="7.5325045"><ele>333.0</ele><time>2026-04-14T16:56:41.031Z</time></trkpt><trkpt lat="45.1141065" lon="7.532415"><ele>333.0</ele><time>2026-04-14T16:56:43.042Z</time></trkpt><trkpt lat="45.1140734" lon="7.532316"><ele>333.0</ele><time>2026-04-14T16:56:45.029Z</time></trkpt><trkpt lat="45.1140183" lon="7.5322107"><ele>333.0</ele><time>2026-04-14T16:56:47.032Z</time></trkpt><trkpt lat="45.113987" lon="7.5321094"><ele>333.0</ele><time>2026-04-14T16:56:49.034Z</time></trkpt><trkpt lat="45.1139474" lon="7.5319986"><ele>333.0</ele><time>2026-04-14T16:56:51.034Z</time></trkpt><trkpt lat="45.1139159" lon="7.5318897"><ele>333.0</ele><time>2026-04-14T16:56:53.031Z</time></trkpt><trkpt lat="45.1138763" lon="7.5317799"><ele>333.0</ele><time>2026-04-14T16:56:55.029Z</time></trkpt><trkpt lat="45.1138354" lon="7.5316905"><ele>333.0</ele><time>2026-04-14T16:56:57.042Z</time></trkpt><trkpt lat="45.1137937" lon="7.5315935"><ele>332.8333333333333</ele><time>2026-04-14T16:56:59.039Z</time></trkpt><trkpt lat="45.1137547" lon="7.5314945"><ele>332.6666666666667</ele><time>2026-04-14T16:57:01.037Z</time></trkpt><trkpt lat="45.1137157" lon="7.5313968"><ele>332.5</ele><time>2026-04-14T16:57:03.038Z</time></trkpt><trkpt lat="45.1136673" lon="7.5312739"><ele>332.33333333333337</ele><time>2026-04-14T16:57:05.035Z</time></trkpt><trkpt lat="45.1136235" lon="7.5311693"><ele>332.1666666666667</ele><time>2026-04-14T16:57:07.04Z</time></trkpt><trkpt lat="45.1135702" lon="7.5310854"><ele>332.0</ele><time>2026-04-14T16:57:09.034Z</time></trkpt><trkpt lat="45.1135258" lon="7.5309946"><ele>332.33333333333337</ele><time>2026-04-14T16:57:11.035Z</time></trkpt><trkpt lat="45.1134955" lon="7.530898"><ele>332.6666666666667</ele><time>2026-04-14T16:57:13.038Z</time></trkpt><trkpt lat="45.11346" lon="7.5308006"><ele>333.0</ele><time>2026-04-14T16:57:15.031Z</time></trkpt><trkpt lat="45.1134293" lon="7.5306777"><ele>333.3333333333333</ele><time>2026-04-14T16:57:17.042Z</time></trkpt><trkpt lat="45.1133892" lon="7.5305633"><ele>333.66666666666663</ele><time>2026-04-14T16:57:19.046Z</time></trkpt><trkpt lat="45.1133553" lon="7.530456"><ele>334.0</ele><time>2026-04-14T16:57:21.038Z</time></trkpt><trkpt lat="45.1133063" lon="7.5303602"><ele>334.0</ele><time>2026-04-14T16:57:23.045Z</time></trkpt><trkpt lat="45.1132661" lon="7.5302571"><ele>334.0</ele><time>2026-04-14T16:57:25.047Z</time></trkpt><trkpt lat="45.1132367" lon="7.5301553"><ele>334.0</ele><time>2026-04-14T16:57:27.045Z</time></trkpt><trkpt lat="45.1132024" lon="7.5300494"><ele>334.0</ele><time>2026-04-14T16:57:29.042Z</time></trkpt><trkpt lat="45.1131674" lon="7.529934"><ele>334.0</ele><time>2026-04-14T16:57:31.037Z</time></trkpt><trkpt lat="45.1131157" lon="7.5298243"><ele>334.0</ele><time>2026-04-14T16:57:33.037Z</time></trkpt><trkpt lat="45.1130817" lon="7.5297292"><ele>333.8333333333333</ele><time>2026-04-14T16:57:35.042Z</time></trkpt><trkpt lat="45.1130393" lon="7.5296178"><ele>333.66666666666663</ele><time>2026-04-14T16:57:37.04Z</time></trkpt><trkpt lat="45.1130004" lon="7.5295167"><ele>333.5</ele><time>2026-04-14T16:57:39.043Z</time></trkpt><trkpt lat="45.1129715" lon="7.5294199"><ele>333.3333333333333</ele><time>2026-04-14T16:57:41.038Z</time></trkpt><trkpt lat="45.112929" lon="7.5293385"><ele>333.1666666666667</ele><time>2026-04-14T16:57:43.037Z</time></trkpt><trkpt lat="45.1129203" lon="7.5292381"><ele>333.0</ele><time>2026-04-14T16:57:45.052Z</time></trkpt><trkpt lat="45.1129606" lon="7.5291362"><ele>333.0</ele><time>2026-04-14T16:57:47.05Z</time></trkpt><trkpt lat="45.113019" lon="7.5290819"><ele>333.0</ele><time>2026-04-14T16:57:49.043Z</time></trkpt><trkpt lat="45.113103" lon="7.5290327"><ele>333.0</ele><time>2026-04-14T16:57:52.04Z</time></trkpt><trkpt lat="45.1131703" lon="7.5289777"><ele>333.0</ele><time>2026-04-14T16:57:54.042Z</time></trkpt><trkpt lat="45.1132432" lon="7.5289354"><ele>333.0</ele><time>2026-04-14T16:57:56.046Z</time></trkpt><trkpt lat="45.1133149" lon="7.5288993"><ele>333.0</ele><time>2026-04-14T16:57:58.046Z</time></trkpt><trkpt lat="45.113383" lon="7.5288425"><ele>333.1666666666667</ele><time>2026-04-14T16:58:00.046Z</time></trkpt><trkpt lat="45.1134502" lon="7.5287954"><ele>333.3333333333333</ele><time>2026-04-14T16:58:02.05Z</time></trkpt><trkpt lat="45.1135163" lon="7.528729"><ele>333.5</ele><time>2026-04-14T16:58:04.048Z</time></trkpt><trkpt lat="45.1135829" lon="7.5286647"><ele>333.66666666666663</ele><time>2026-04-14T16:58:06.06Z</time></trkpt><trkpt lat="45.1136373" lon="7.5285948"><ele>333.8333333333333</ele><time>2026-04-14T16:58:08.044Z</time></trkpt><trkpt lat="45.1136957" lon="7.5285189"><ele>334.0</ele><time>2026-04-14T16:58:10.051Z</time></trkpt><trkpt lat="45.1137587" lon="7.5284422"><ele>334.0</ele><time>2026-04-14T16:58:12.052Z</time></trkpt><trkpt lat="45.1138215" lon="7.5283588"><ele>334.0</ele><time>2026-04-14T16:58:14.051Z</time></trkpt><trkpt lat="45.1138849" lon="7.5282874"><ele>334.0</ele><time>2026-04-14T16:58:16.058Z</time></trkpt><trkpt lat="45.1139416" lon="7.5282179"><ele>334.0</ele><time>2026-04-14T16:58:18.053Z</time></trkpt><trkpt lat="45.1140044" lon="7.528138"><ele>334.0</ele><time>2026-04-14T16:58:20.051Z</time></trkpt><trkpt lat="45.114059" lon="7.5280531"><ele>334.0</ele><time>2026-04-14T16:58:22.05Z</time></trkpt><trkpt lat="45.1141233" lon="7.5279957"><ele>334.0</ele><time>2026-04-14T16:58:24.051Z</time></trkpt><trkpt lat="45.1141974" lon="7.5279324"><ele>334.0</ele><time>2026-04-14T16:58:26.054Z</time></trkpt><trkpt lat="45.1142751" lon="7.5278332"><ele>334.0</ele><time>2026-04-14T16:58:28.052Z</time></trkpt><trkpt lat="45.1143462" lon="7.5277182"><ele>334.0</ele><time>2026-04-14T16:58:30.048Z</time></trkpt><trkpt lat="45.1144249" lon="7.5276475"><ele>334.0</ele><time>2026-04-14T16:58:32.038Z</time></trkpt><trkpt lat="45.1145083" lon="7.5275658"><ele>334.4</ele><time>2026-04-14T16:58:34.045Z</time></trkpt><trkpt lat="45.1145962" lon="7.5274666"><ele>334.79999999999995</ele><time>2026-04-14T16:58:36.075Z</time></trkpt><trkpt lat="45.1146786" lon="7.5273711"><ele>335.20000000000005</ele><time>2026-04-14T16:58:38.043Z</time></trkpt><trkpt lat="45.1147584" lon="7.5272791"><ele>335.6</ele><time>2026-04-14T16:58:40.045Z</time></trkpt><trkpt lat="45.1148371" lon="7.5271823"><ele>336.0</ele><time>2026-04-14T16:58:42.045Z</time></trkpt><trkpt lat="45.1149102" lon="7.5270889"><ele>335.6</ele><time>2026-04-14T16:58:44.044Z</time></trkpt><trkpt lat="45.1149934" lon="7.5270074"><ele>335.20000000000005</ele><time>2026-04-14T16:58:46.048Z</time></trkpt><trkpt lat="45.1150675" lon="7.5269148"><ele>334.79999999999995</ele><time>2026-04-14T16:58:48.046Z</time></trkpt><trkpt lat="45.1151521" lon="7.5268335"><ele>334.4</ele><time>2026-04-14T16:58:50.044Z</time></trkpt><trkpt lat="45.1152308" lon="7.5267511"><ele>334.0</ele><time>2026-04-14T16:58:52.053Z</time></trkpt><trkpt lat="45.115298" lon="7.5266376"><ele>334.0</ele><time>2026-04-14T16:58:54.036Z</time></trkpt><trkpt lat="45.1153927" lon="7.5265721"><ele>334.0</ele><time>2026-04-14T16:58:56.047Z</time></trkpt><trkpt lat="45.1154601" lon="7.5264822"><ele>334.0</ele><time>2026-04-14T16:58:58.045Z</time></trkpt><trkpt lat="45.1155418" lon="7.526386"><ele>334.0</ele><time>2026-04-14T16:59:00.049Z</time></trkpt><trkpt lat="45.1156104" lon="7.5262883"><ele>334.0</ele><time>2026-04-14T16:59:02.042Z</time></trkpt><trkpt lat="45.1156735" lon="7.5261834"><ele>334.2</ele><time>2026-04-14T16:59:04.047Z</time></trkpt><trkpt lat="45.1157313" lon="7.5260768"><ele>334.4</ele><time>2026-04-14T16:59:06.056Z</time></trkpt><trkpt lat="45.1157926" lon="7.52597"><ele>334.6</ele><time>2026-04-14T16:59:08.038Z</time></trkpt><trkpt lat="45.115853" lon="7.5258707"><ele>334.8</ele><time>2026-04-14T16:59:10.04Z</time></trkpt><trkpt lat="45.1159016" lon="7.5257425"><ele>335.0</ele><time>2026-04-14T16:59:12.048Z</time></trkpt><trkpt lat="45.115954" lon="7.5256267"><ele>335.0</ele><time>2026-04-14T16:59:14.043Z</time></trkpt><trkpt lat="45.1160188" lon="7.5255237"><ele>335.0</ele><time>2026-04-14T16:59:16.044Z</time></trkpt><trkpt lat="45.1160719" lon="7.5254013"><ele>335.0</ele><time>2026-04-14T16:59:18.057Z</time></trkpt><trkpt lat="45.1161194" lon="7.5252654"><ele>335.0</ele><time>2026-04-14T16:59:20.045Z</time></trkpt><trkpt lat="45.1161798" lon="7.5251371"><ele>335.0</ele><time>2026-04-14T16:59:22.041Z</time></trkpt><trkpt lat="45.1162371" lon="7.5250269"><ele>335.0</ele><time>2026-04-14T16:59:24.04Z</time></trkpt><trkpt lat="45.1162903" lon="7.5249269"><ele>335.0</ele><time>2026-04-14T16:59:26.043Z</time></trkpt><trkpt lat="45.1163409" lon="7.5248203"><ele>335.0</ele><time>2026-04-14T16:59:28.036Z</time></trkpt><trkpt lat="45.1163881" lon="7.5247227"><ele>335.0</ele><time>2026-04-14T16:59:30.049Z</time></trkpt><trkpt lat="45.1164292" lon="7.524606"><ele>335.0</ele><time>2026-04-14T16:59:32.05Z</time></trkpt><trkpt lat="45.1164725" lon="7.5244832"><ele>335.0</ele><time>2026-04-14T16:59:34.041Z</time></trkpt><trkpt lat="45.1165196" lon="7.524372"><ele>335.0</ele><time>2026-04-14T16:59:36.06Z</time></trkpt><trkpt lat="45.1165688" lon="7.5242594"><ele>335.0</ele><time>2026-04-14T16:59:38.046Z</time></trkpt><trkpt lat="45.1166252" lon="7.5241446"><ele>335.0</ele><time>2026-04-14T16:59:40.047Z</time></trkpt><trkpt lat="45.1166584" lon="7.5240154"><ele>335.0</ele><time>2026-04-14T16:59:42.051Z</time></trkpt><trkpt lat="45.1167101" lon="7.5238857"><ele>334.8</ele><time>2026-04-14T16:59:44.046Z</time></trkpt><trkpt lat="45.116769" lon="7.5237568"><ele>334.6</ele><time>2026-04-14T16:59:46.048Z</time></trkpt><trkpt lat="45.1168283" lon="7.5236418"><ele>334.4</ele><time>2026-04-14T16:59:48.051Z</time></trkpt><trkpt lat="45.1168825" lon="7.5235209"><ele>334.2</ele><time>2026-04-14T16:59:50.046Z</time></trkpt><trkpt lat="45.1169349" lon="7.523392"><ele>334.0</ele><time>2026-04-14T16:59:52.048Z</time></trkpt><trkpt lat="45.1169823" lon="7.5232545"><ele>334.0</ele><time>2026-04-14T16:59:54.051Z</time></trkpt><trkpt lat="45.117035" lon="7.52312"><ele>334.0</ele><time>2026-04-14T16:59:56.053Z</time></trkpt><trkpt lat="45.1170981" lon="7.5230129"><ele>334.0</ele><time>2026-04-14T16:59:58.046Z</time></trkpt><trkpt lat="45.1171492" lon="7.5228837"><ele>334.0</ele><time>2026-04-14T17:00:00.042Z</time></trkpt><trkpt lat="45.1172059" lon="7.5227575"><ele>334.0</ele><time>2026-04-14T17:00:02.048Z</time></trkpt><trkpt lat="45.1172691" lon="7.5226157"><ele>334.0</ele><time>2026-04-14T17:00:04.053Z</time></trkpt><trkpt lat="45.1173237" lon="7.5224832"><ele>334.0</ele><time>2026-04-14T17:00:06.051Z</time></trkpt><trkpt lat="45.1173883" lon="7.5223508"><ele>334.0</ele><time>2026-04-14T17:00:08.057Z</time></trkpt><trkpt lat="45.1174512" lon="7.5222209"><ele>334.0</ele><time>2026-04-14T17:00:10.043Z</time></trkpt><trkpt lat="45.1175113" lon="7.5220804"><ele>334.0</ele><time>2026-04-14T17:00:12.05Z</time></trkpt><trkpt lat="45.1175798" lon="7.5219557"><ele>334.0</ele><time>2026-04-14T17:00:14.047Z</time></trkpt><trkpt lat="45.11764" lon="7.5218274"><ele>334.0</ele><time>2026-04-14T17:00:16.049Z</time></trkpt><trkpt lat="45.1177074" lon="7.5217019"><ele>334.0</ele><time>2026-04-14T17:00:18.047Z</time></trkpt><trkpt lat="45.1177554" lon="7.5215798"><ele>334.0</ele><time>2026-04-14T17:00:20.055Z</time></trkpt><trkpt lat="45.1178051" lon="7.5214785"><ele>334.0</ele><time>2026-04-14T17:00:22.049Z</time></trkpt><trkpt lat="45.1178512" lon="7.5213562"><ele>334.79999999999995</ele><time>2026-04-14T17:00:24.054Z</time></trkpt><trkpt lat="45.1178933" lon="7.5212316"><ele>335.59999999999997</ele><time>2026-04-14T17:00:26.05Z</time></trkpt><trkpt lat="45.1179325" lon="7.5211084"><ele>336.4</ele><time>2026-04-14T17:00:28.048Z</time></trkpt><trkpt lat="45.1179847" lon="7.5209971"><ele>337.2</ele><time>2026-04-14T17:00:30.044Z</time></trkpt><trkpt lat="45.118042" lon="7.520871"><ele>338.0</ele><time>2026-04-14T17:00:32.046Z</time></trkpt><trkpt lat="45.1181171" lon="7.5207915"><ele>338.0</ele><time>2026-04-14T17:00:34.05Z</time></trkpt><trkpt lat="45.1181663" lon="7.5206731"><ele>338.0</ele><time>2026-04-14T17:00:36.053Z</time></trkpt><trkpt lat="45.118203" lon="7.520537"><ele>338.0</ele><time>2026-04-14T17:00:38.046Z</time></trkpt><trkpt lat="45.118247" lon="7.520418"><ele>338.0</ele><time>2026-04-14T17:00:40.045Z</time></trkpt><trkpt lat="45.1182826" lon="7.5202819"><ele>338.0</ele><time>2026-04-14T17:00:42.047Z</time></trkpt><trkpt lat="45.1183163" lon="7.5201508"><ele>338.2</ele><time>2026-04-14T17:00:44.049Z</time></trkpt><trkpt lat="45.1183489" lon="7.5200178"><ele>338.4</ele><time>2026-04-14T17:00:46.043Z</time></trkpt><trkpt lat="45.1183827" lon="7.5198959"><ele>338.59999999999997</ele><time>2026-04-14T17:00:48.047Z</time></trkpt><trkpt lat="45.1184184" lon="7.5197786"><ele>338.79999999999995</ele><time>2026-04-14T17:00:50.046Z</time></trkpt><trkpt lat="45.1184517" lon="7.5196577"><ele>339.0</ele><time>2026-04-14T17:00:52.046Z</time></trkpt><trkpt lat="45.1184877" lon="7.5195449"><ele>339.2</ele><time>2026-04-14T17:00:54.048Z</time></trkpt><trkpt lat="45.1185096" lon="7.5194164"><ele>339.4</ele><time>2026-04-14T17:00:56.056Z</time></trkpt><trkpt lat="45.1185424" lon="7.5192882"><ele>339.6</ele><time>2026-04-14T17:00:58.058Z</time></trkpt><trkpt lat="45.1185697" lon="7.5191364"><ele>339.8</ele><time>2026-04-14T17:01:00.056Z</time></trkpt><trkpt lat="45.1186043" lon="7.5189954"><ele>340.0</ele><time>2026-04-14T17:01:02.053Z</time></trkpt><trkpt lat="45.1186259" lon="7.5188504"><ele>340.2</ele><time>2026-04-14T17:01:04.058Z</time></trkpt><trkpt lat="45.118657" lon="7.5187091"><ele>340.4</ele><time>2026-04-14T17:01:06.062Z</time></trkpt><trkpt lat="45.1186946" lon="7.5185778"><ele>340.6</ele><time>2026-04-14T17:01:08.067Z</time></trkpt><trkpt lat="45.1187299" lon="7.5184458"><ele>340.8</ele><time>2026-04-14T17:01:10.054Z</time></trkpt><trkpt lat="45.1187612" lon="7.5183251"><ele>341.0</ele><time>2026-04-14T17:01:12.053Z</time></trkpt><trkpt lat="45.1188004" lon="7.5181901"><ele>341.0</ele><time>2026-04-14T17:01:14.053Z</time></trkpt><trkpt lat="45.1188401" lon="7.5180508"><ele>341.0</ele><time>2026-04-14T17:01:16.052Z</time></trkpt><trkpt lat="45.118883" lon="7.5179182"><ele>341.0</ele><time>2026-04-14T17:01:18.051Z</time></trkpt><trkpt lat="45.1189198" lon="7.5177933"><ele>341.0</ele><time>2026-04-14T17:01:20.052Z</time></trkpt><trkpt lat="45.1189647" lon="7.5176616"><ele>341.0</ele><time>2026-04-14T17:01:22.057Z</time></trkpt><trkpt lat="45.1190039" lon="7.5175475"><ele>340.6</ele><time>2026-04-14T17:01:24.046Z</time></trkpt><trkpt lat="45.1190309" lon="7.5174153"><ele>340.20000000000005</ele><time>2026-04-14T17:01:26.036Z</time></trkpt><trkpt lat="45.119064" lon="7.5172976"><ele>339.79999999999995</ele><time>2026-04-14T17:01:28.023Z</time></trkpt><trkpt lat="45.1190913" lon="7.5172084"><ele>339.4</ele><time>2026-04-14T17:01:30.021Z</time></trkpt><trkpt lat="45.1191535" lon="7.5170885"><ele>339.0</ele><time>2026-04-14T17:01:32.012Z</time></trkpt><trkpt lat="45.1191833" lon="7.5169523"><ele>339.0</ele><time>2026-04-14T17:01:34.017Z</time></trkpt><trkpt lat="45.1191949" lon="7.5168373"><ele>339.0</ele><time>2026-04-14T17:01:36.034Z</time></trkpt><trkpt lat="45.1191999" lon="7.5167358"><ele>339.0</ele><time>2026-04-14T17:01:38.029Z</time></trkpt><trkpt lat="45.1192376" lon="7.5166327"><ele>339.0</ele><time>2026-04-14T17:01:40.035Z</time></trkpt><trkpt lat="45.1192674" lon="7.5165269"><ele>339.0</ele><time>2026-04-14T17:01:42.028Z</time></trkpt><trkpt lat="45.1193006" lon="7.5164463"><ele>339.0</ele><time>2026-04-14T17:01:44.038Z</time></trkpt><trkpt lat="45.1193182" lon="7.5163562"><ele>339.0</ele><time>2026-04-14T17:01:46.036Z</time></trkpt><trkpt lat="45.1193486" lon="7.5162669"><ele>339.5</ele><time>2026-04-14T17:01:48.051Z</time></trkpt><trkpt lat="45.1193815" lon="7.5161783"><ele>340.0</ele><time>2026-04-14T17:01:50.053Z</time></trkpt><trkpt lat="45.1194102" lon="7.5160797"><ele>340.5</ele><time>2026-04-14T17:01:52.05Z</time></trkpt><trkpt lat="45.1194332" lon="7.5159788"><ele>341.0</ele><time>2026-04-14T17:01:54.048Z</time></trkpt><trkpt lat="45.119448" lon="7.5158693"><ele>341.5</ele><time>2026-04-14T17:01:56.032Z</time></trkpt><trkpt lat="45.1194714" lon="7.5157635"><ele>342.0</ele><time>2026-04-14T17:01:58.032Z</time></trkpt><trkpt lat="45.1194912" lon="7.5156602"><ele>342.0</ele><time>2026-04-14T17:02:00.028Z</time></trkpt><trkpt lat="45.1195221" lon="7.5155703"><ele>342.0</ele><time>2026-04-14T17:02:02.032Z</time></trkpt><trkpt lat="45.119554" lon="7.5154654"><ele>342.0</ele><time>2026-04-14T17:02:04.036Z</time></trkpt><trkpt lat="45.1195791" lon="7.5153804"><ele>342.0</ele><time>2026-04-14T17:02:06.043Z</time></trkpt><trkpt lat="45.1196015" lon="7.515278"><ele>342.0</ele><time>2026-04-14T17:02:08.046Z</time></trkpt><trkpt lat="45.1196477" lon="7.5151827"><ele>342.0</ele><time>2026-04-14T17:02:10.038Z</time></trkpt><trkpt lat="45.1196816" lon="7.515086"><ele>342.1428571428571</ele><time>2026-04-14T17:02:12.042Z</time></trkpt><trkpt lat="45.1196959" lon="7.5149768"><ele>342.2857142857143</ele><time>2026-04-14T17:02:14.046Z</time></trkpt><trkpt lat="45.1197256" lon="7.5148837"><ele>342.42857142857144</ele><time>2026-04-14T17:02:16.045Z</time></trkpt><trkpt lat="45.1197466" lon="7.5147716"><ele>342.57142857142856</ele><time>2026-04-14T17:02:18.046Z</time></trkpt><trkpt lat="45.119769" lon="7.5146666"><ele>342.7142857142857</ele><time>2026-04-14T17:02:20.045Z</time></trkpt><trkpt lat="45.119797" lon="7.5145828"><ele>342.85714285714283</ele><time>2026-04-14T17:02:22.045Z</time></trkpt><trkpt lat="45.1198143" lon="7.514492"><ele>343.0</ele><time>2026-04-14T17:02:24.035Z</time></trkpt><trkpt lat="45.1198128" lon="7.5143797"><ele>343.0</ele><time>2026-04-14T17:02:26.043Z</time></trkpt><trkpt lat="45.1198105" lon="7.5142717"><ele>343.0</ele><time>2026-04-14T17:02:28.047Z</time></trkpt><trkpt lat="45.119816" lon="7.5141738"><ele>343.0</ele><time>2026-04-14T17:02:30.048Z</time></trkpt><trkpt lat="45.1198251" lon="7.5140581"><ele>343.0</ele><time>2026-04-14T17:02:32.034Z</time></trkpt><trkpt lat="45.1198348" lon="7.5139564"><ele>343.0</ele><time>2026-04-14T17:02:34.039Z</time></trkpt><trkpt lat="45.1198407" lon="7.5138601"><ele>343.0</ele><time>2026-04-14T17:02:36.052Z</time></trkpt><trkpt lat="45.1198489" lon="7.5137473"><ele>343.0</ele><time>2026-04-14T17:02:38.041Z</time></trkpt><trkpt lat="45.1198417" lon="7.5136351"><ele>343.0</ele><time>2026-04-14T17:02:40.04Z</time></trkpt><trkpt lat="45.1198436" lon="7.5135172"><ele>343.0</ele><time>2026-04-14T17:02:42.048Z</time></trkpt><trkpt lat="45.1198436" lon="7.5133797"><ele>343.0</ele><time>2026-04-14T17:02:44.047Z</time></trkpt><trkpt lat="45.1198406" lon="7.5132545"><ele>343.0</ele><time>2026-04-14T17:02:46.046Z</time></trkpt><trkpt lat="45.1198249" lon="7.5131185"><ele>343.0</ele><time>2026-04-14T17:02:48.051Z</time></trkpt><trkpt lat="45.1198157" lon="7.5129854"><ele>343.0</ele><time>2026-04-14T17:02:50.044Z</time></trkpt><trkpt lat="45.1197983" lon="7.5128426"><ele>343.0</ele><time>2026-04-14T17:02:52.053Z</time></trkpt><trkpt lat="45.1197768" lon="7.5126859"><ele>343.0</ele><time>2026-04-14T17:02:54.05Z</time></trkpt><trkpt lat="45.119759" lon="7.5125324"><ele>343.0</ele><time>2026-04-14T17:02:56.05Z</time></trkpt><trkpt lat="45.1197314" lon="7.5123999"><ele>343.0</ele><time>2026-04-14T17:02:58.044Z</time></trkpt><trkpt lat="45.1197122" lon="7.5122683"><ele>343.0</ele><time>2026-04-14T17:03:00.047Z</time></trkpt><trkpt lat="45.1196994" lon="7.5121312"><ele>343.0</ele><time>2026-04-14T17:03:02.047Z</time></trkpt><trkpt lat="45.1196954" lon="7.5119945"><ele>343.0</ele><time>2026-04-14T17:03:04.046Z</time></trkpt><trkpt lat="45.1196929" lon="7.5118644"><ele>343.0</ele><time>2026-04-14T17:03:06.049Z</time></trkpt><trkpt lat="45.1197008" lon="7.5117472"><ele>343.0</ele><time>2026-04-14T17:03:08.038Z</time></trkpt><trkpt lat="45.1197384" lon="7.51164"><ele>343.16666666666663</ele><time>2026-04-14T17:03:10.038Z</time></trkpt><trkpt lat="45.1197912" lon="7.5115213"><ele>343.3333333333333</ele><time>2026-04-14T17:03:12.031Z</time></trkpt><trkpt lat="45.1198251" lon="7.5114115"><ele>343.5</ele><time>2026-04-14T17:03:14.045Z</time></trkpt><trkpt lat="45.1198499" lon="7.5113024"><ele>343.6666666666667</ele><time>2026-04-14T17:03:16.028Z</time></trkpt><trkpt lat="45.1198791" lon="7.5111815"><ele>343.83333333333337</ele><time>2026-04-14T17:03:18.045Z</time></trkpt><trkpt lat="45.1198953" lon="7.5110631"><ele>344.0</ele><time>2026-04-14T17:03:20.037Z</time></trkpt><trkpt lat="45.1199089" lon="7.5109629"><ele>344.0</ele><time>2026-04-14T17:03:22.042Z</time></trkpt><trkpt lat="45.1199279" lon="7.5108454"><ele>344.0</ele><time>2026-04-14T17:03:24.03Z</time></trkpt><trkpt lat="45.119945" lon="7.5107087"><ele>344.0</ele><time>2026-04-14T17:03:26.039Z</time></trkpt><trkpt lat="45.1199274" lon="7.5105725"><ele>344.0</ele><time>2026-04-14T17:03:28.04Z</time></trkpt><trkpt lat="45.1199247" lon="7.5104089"><ele>344.0</ele><time>2026-04-14T17:03:30.045Z</time></trkpt><trkpt lat="45.1199189" lon="7.51027"><ele>343.79999999999995</ele><time>2026-04-14T17:03:32.04Z</time></trkpt><trkpt lat="45.1199211" lon="7.5101144"><ele>343.59999999999997</ele><time>2026-04-14T17:03:34.043Z</time></trkpt><trkpt lat="45.1199336" lon="7.5099589"><ele>343.4</ele><time>2026-04-14T17:03:36.043Z</time></trkpt><trkpt lat="45.1199604" lon="7.5097937"><ele>343.2</ele><time>2026-04-14T17:03:38.043Z</time></trkpt><trkpt lat="45.1199798" lon="7.5097058"><ele>343.0</ele><time>2026-04-14T17:03:39.039Z</time></trkpt><trkpt lat="45.1200076" lon="7.5096254"><ele>343.0</ele><time>2026-04-14T17:03:40.036Z</time></trkpt><trkpt lat="45.1200634" lon="7.5094612"><ele>343.0</ele><time>2026-04-14T17:03:42.044Z</time></trkpt><trkpt lat="45.1201004" lon="7.5093161"><ele>343.0</ele><time>2026-04-14T17:03:44.037Z</time></trkpt><trkpt lat="45.120138" lon="7.50916"><ele>343.0</ele><time>2026-04-14T17:03:46.036Z</time></trkpt><trkpt lat="45.1201811" lon="7.5090215"><ele>343.0</ele><time>2026-04-14T17:03:48.045Z</time></trkpt><trkpt lat="45.1202137" lon="7.5088864"><ele>343.0</ele><time>2026-04-14T17:03:50.039Z</time></trkpt><trkpt lat="45.1202292" lon="7.508748"><ele>343.0</ele><time>2026-04-14T17:03:52.044Z</time></trkpt><trkpt lat="45.12023" lon="7.508607"><ele>343.0</ele><time>2026-04-14T17:03:54.055Z</time></trkpt><trkpt lat="45.1202137" lon="7.508481"><ele>343.0</ele><time>2026-04-14T17:03:56.06Z</time></trkpt><trkpt lat="45.1202057" lon="7.5083643"><ele>343.0</ele><time>2026-04-14T17:03:58.052Z</time></trkpt><trkpt lat="45.1201975" lon="7.5082462"><ele>343.0</ele><time>2026-04-14T17:04:00.039Z</time></trkpt><trkpt lat="45.1201688" lon="7.5081243"><ele>343.0</ele><time>2026-04-14T17:04:02.035Z</time></trkpt><trkpt lat="45.1201541" lon="7.5080042"><ele>343.0</ele><time>2026-04-14T17:04:04.046Z</time></trkpt><trkpt lat="45.1201472" lon="7.5078802"><ele>343.0</ele><time>2026-04-14T17:04:06.047Z</time></trkpt><trkpt lat="45.1201351" lon="7.5077479"><ele>343.0</ele><time>2026-04-14T17:04:08.041Z</time></trkpt><trkpt lat="45.1201183" lon="7.5076268"><ele>343.59999999999997</ele><time>2026-04-14T17:04:10.044Z</time></trkpt><trkpt lat="45.1201197" lon="7.5074989"><ele>344.2</ele><time>2026-04-14T17:04:12.047Z</time></trkpt><trkpt lat="45.1201122" lon="7.5073782"><ele>344.8</ele><time>2026-04-14T17:04:14.037Z</time></trkpt><trkpt lat="45.1201001" lon="7.5072576"><ele>345.4</ele><time>2026-04-14T17:04:16.044Z</time></trkpt><trkpt lat="45.1200999" lon="7.5071175"><ele>346.0</ele><time>2026-04-14T17:04:18.048Z</time></trkpt><trkpt lat="45.1201012" lon="7.5069889"><ele>346.5</ele><time>2026-04-14T17:04:20.048Z</time></trkpt><trkpt lat="45.1201019" lon="7.5068703"><ele>347.0</ele><time>2026-04-14T17:04:22.046Z</time></trkpt><trkpt lat="45.1200999" lon="7.506756"><ele>347.5</ele><time>2026-04-14T17:04:24.048Z</time></trkpt><trkpt lat="45.1201083" lon="7.5066386"><ele>348.0</ele><time>2026-04-14T17:04:26.04Z</time></trkpt><trkpt lat="45.1201183" lon="7.5065386"><ele>348.5</ele><time>2026-04-14T17:04:28.039Z</time></trkpt><trkpt lat="45.1201252" lon="7.5064355"><ele>349.0</ele><time>2026-04-14T17:04:30.047Z</time></trkpt><trkpt lat="45.1201316" lon="7.5063431"><ele>349.0</ele><time>2026-04-14T17:04:32.044Z</time></trkpt><trkpt lat="45.1201292" lon="7.5062519"><ele>349.0</ele><time>2026-04-14T17:04:34.046Z</time></trkpt><trkpt lat="45.1201416" lon="7.506148"><ele>349.0</ele><time>2026-04-14T17:04:36.055Z</time></trkpt><trkpt lat="45.1201491" lon="7.5060351"><ele>349.0</ele><time>2026-04-14T17:04:38.047Z</time></trkpt><trkpt lat="45.1201539" lon="7.50591"><ele>349.0</ele><time>2026-04-14T17:04:40.048Z</time></trkpt><trkpt lat="45.1201559" lon="7.5057892"><ele>349.0</ele><time>2026-04-14T17:04:42.033Z</time></trkpt><trkpt lat="45.1201565" lon="7.5056722"><ele>349.1428571428571</ele><time>2026-04-14T17:04:44.037Z</time></trkpt><trkpt lat="45.1201678" lon="7.5055665"><ele>349.2857142857143</ele><time>2026-04-14T17:04:46.03Z</time></trkpt><trkpt lat="45.1201687" lon="7.5054761"><ele>349.42857142857144</ele><time>2026-04-14T17:04:48.032Z</time></trkpt><trkpt lat="45.1201575" lon="7.5053768"><ele>349.57142857142856</ele><time>2026-04-14T17:04:50.034Z</time></trkpt><trkpt lat="45.1201531" lon="7.5052638"><ele>349.7142857142857</ele><time>2026-04-14T17:04:52.034Z</time></trkpt><trkpt lat="45.1201447" lon="7.5051637"><ele>349.85714285714283</ele><time>2026-04-14T17:04:54.042Z</time></trkpt><trkpt lat="45.1201315" lon="7.5050498"><ele>350.0</ele><time>2026-04-14T17:04:56.033Z</time></trkpt><trkpt lat="45.1201316" lon="7.504936"><ele>350.33333333333337</ele><time>2026-04-14T17:04:58.05Z</time></trkpt><trkpt lat="45.120133" lon="7.5048358"><ele>350.6666666666667</ele><time>2026-04-14T17:05:00.038Z</time></trkpt><trkpt lat="45.1201275" lon="7.5047448"><ele>351.0</ele><time>2026-04-14T17:05:02.037Z</time></trkpt><trkpt lat="45.1201277" lon="7.5046423"><ele>351.3333333333333</ele><time>2026-04-14T17:05:04.035Z</time></trkpt><trkpt lat="45.1201066" lon="7.5045522"><ele>351.66666666666663</ele><time>2026-04-14T17:05:06.038Z</time></trkpt><trkpt lat="45.1200787" lon="7.5044271"><ele>352.0</ele><time>2026-04-14T17:05:09.027Z</time></trkpt><trkpt lat="45.12005" lon="7.5043087"><ele>352.5</ele><time>2026-04-14T17:05:12.032Z</time></trkpt><trkpt lat="45.1200519" lon="7.504217"><ele>353.0</ele><time>2026-04-14T17:05:14.036Z</time></trkpt><trkpt lat="45.1200798" lon="7.5041123"><ele>353.5</ele><time>2026-04-14T17:05:17.032Z</time></trkpt><trkpt lat="45.1201043" lon="7.5039998"><ele>354.0</ele><time>2026-04-14T17:05:20.033Z</time></trkpt><trkpt lat="45.1201342" lon="7.5038925"><ele>354.5</ele><time>2026-04-14T17:05:23.038Z</time></trkpt><trkpt lat="45.120166" lon="7.5037799"><ele>355.0</ele><time>2026-04-14T17:05:26.037Z</time></trkpt><trkpt lat="45.1201972" lon="7.5036646"><ele>355.5</ele><time>2026-04-14T17:05:29.048Z</time></trkpt><trkpt lat="45.1202444" lon="7.5035506"><ele>356.0</ele><time>2026-04-14T17:05:32.033Z</time></trkpt><trkpt lat="45.1202747" lon="7.5034716"><ele>356.5</ele><time>2026-04-14T17:05:34.035Z</time></trkpt><trkpt lat="45.120318" lon="7.503376"><ele>357.0</ele><time>2026-04-14T17:05:36.043Z</time></trkpt><trkpt lat="45.1203535" lon="7.5032844"><ele>357.5</ele><time>2026-04-14T17:05:38.034Z</time></trkpt><trkpt lat="45.1203907" lon="7.5031967"><ele>358.0</ele><time>2026-04-14T17:05:40.033Z</time></trkpt><trkpt lat="45.1204216" lon="7.5031078"><ele>358.0</ele><time>2026-04-14T17:05:42.034Z</time></trkpt><trkpt lat="45.1204676" lon="7.5030038"><ele>358.0</ele><time>2026-04-14T17:05:44.033Z</time></trkpt><trkpt lat="45.1205162" lon="7.502905"><ele>358.0</ele><time>2026-04-14T17:05:46.036Z</time></trkpt><trkpt lat="45.1205632" lon="7.5027892"><ele>358.0</ele><time>2026-04-14T17:05:48.037Z</time></trkpt><trkpt lat="45.120604" lon="7.5026663"><ele>358.0</ele><time>2026-04-14T17:05:50.039Z</time></trkpt><trkpt lat="45.1206358" lon="7.5025471"><ele>358.0</ele><time>2026-04-14T17:05:52.035Z</time></trkpt><trkpt lat="45.1206795" lon="7.5024197"><ele>358.0</ele><time>2026-04-14T17:05:54.041Z</time></trkpt><trkpt lat="45.1207323" lon="7.5023064"><ele>358.0</ele><time>2026-04-14T17:05:56.039Z</time></trkpt><trkpt lat="45.1207729" lon="7.5021734"><ele>358.0</ele><time>2026-04-14T17:05:58.04Z</time></trkpt><trkpt lat="45.1208225" lon="7.5020479"><ele>358.0</ele><time>2026-04-14T17:06:00.051Z</time></trkpt><trkpt lat="45.120871" lon="7.5019148"><ele>358.0</ele><time>2026-04-14T17:06:02.038Z</time></trkpt><trkpt lat="45.1209337" lon="7.5017898"><ele>358.0</ele><time>2026-04-14T17:06:04.039Z</time></trkpt><trkpt lat="45.1209918" lon="7.5016712"><ele>358.0</ele><time>2026-04-14T17:06:06.046Z</time></trkpt><trkpt lat="45.1210348" lon="7.5015413"><ele>358.0</ele><time>2026-04-14T17:06:08.037Z</time></trkpt><trkpt lat="45.121087" lon="7.5013974"><ele>358.0</ele><time>2026-04-14T17:06:10.034Z</time></trkpt><trkpt lat="45.1211384" lon="7.5012683"><ele>358.2</ele><time>2026-04-14T17:06:12.033Z</time></trkpt><trkpt lat="45.1211772" lon="7.5011557"><ele>358.4</ele><time>2026-04-14T17:06:14.029Z</time></trkpt><trkpt lat="45.1212222" lon="7.5010351"><ele>358.59999999999997</ele><time>2026-04-14T17:06:16.036Z</time></trkpt><trkpt lat="45.1212697" lon="7.5009116"><ele>358.79999999999995</ele><time>2026-04-14T17:06:18.031Z</time></trkpt><trkpt lat="45.121324" lon="7.500794"><ele>359.0</ele><time>2026-04-14T17:06:20.034Z</time></trkpt><trkpt lat="45.1213788" lon="7.5006573"><ele>359.0</ele><time>2026-04-14T17:06:22.033Z</time></trkpt><trkpt lat="45.1214295" lon="7.5005279"><ele>359.0</ele><time>2026-04-14T17:06:24.035Z</time></trkpt><trkpt lat="45.1214856" lon="7.5003865"><ele>359.0</ele><time>2026-04-14T17:06:26.036Z</time></trkpt><trkpt lat="45.1215463" lon="7.500249"><ele>359.0</ele><time>2026-04-14T17:06:28.033Z</time></trkpt><trkpt lat="45.1215916" lon="7.5001157"><ele>359.0</ele><time>2026-04-14T17:06:30.038Z</time></trkpt><trkpt lat="45.1216593" lon="7.4999862"><ele>358.75</ele><time>2026-04-14T17:06:32.038Z</time></trkpt><trkpt lat="45.1217109" lon="7.4998372"><ele>358.5</ele><time>2026-04-14T17:06:34.039Z</time></trkpt><trkpt lat="45.1217667" lon="7.4996836"><ele>358.25</ele><time>2026-04-14T17:06:36.044Z</time></trkpt><trkpt lat="45.1218251" lon="7.499535"><ele>358.0</ele><time>2026-04-14T17:06:38.035Z</time></trkpt><trkpt lat="45.121876" lon="7.499381"><ele>358.0</ele><time>2026-04-14T17:06:40.034Z</time></trkpt><trkpt lat="45.1219283" lon="7.4992301"><ele>358.0</ele><time>2026-04-14T17:06:42.037Z</time></trkpt><trkpt lat="45.1219945" lon="7.4990891"><ele>358.0</ele><time>2026-04-14T17:06:44.031Z</time></trkpt><trkpt lat="45.1220529" lon="7.4989323"><ele>358.0</ele><time>2026-04-14T17:06:46.044Z</time></trkpt><trkpt lat="45.1220882" lon="7.4988531"><ele>358.0</ele><time>2026-04-14T17:06:47.042Z</time></trkpt><trkpt lat="45.1221445" lon="7.498693"><ele>358.2</ele><time>2026-04-14T17:06:49.042Z</time></trkpt><trkpt lat="45.1222045" lon="7.4985407"><ele>358.4</ele><time>2026-04-14T17:06:51.04Z</time></trkpt><trkpt lat="45.122261" lon="7.4983843"><ele>358.59999999999997</ele><time>2026-04-14T17:06:53.036Z</time></trkpt><trkpt lat="45.1223156" lon="7.4982344"><ele>358.79999999999995</ele><time>2026-04-14T17:06:55.045Z</time></trkpt><trkpt lat="45.1223535" lon="7.4981586"><ele>359.0</ele><time>2026-04-14T17:06:56.039Z</time></trkpt><trkpt lat="45.1223925" lon="7.4980859"><ele>358.75</ele><time>2026-04-14T17:06:57.036Z</time></trkpt><trkpt lat="45.1224625" lon="7.4979547"><ele>358.5</ele><time>2026-04-14T17:06:59.035Z</time></trkpt><trkpt lat="45.1225344" lon="7.4978186"><ele>358.25</ele><time>2026-04-14T17:07:01.045Z</time></trkpt><trkpt lat="45.1226154" lon="7.4976975"><ele>358.0</ele><time>2026-04-14T17:07:03.033Z</time></trkpt><trkpt lat="45.1226958" lon="7.4975768"><ele>358.0</ele><time>2026-04-14T17:07:05.036Z</time></trkpt><trkpt lat="45.1227772" lon="7.4974535"><ele>358.0</ele><time>2026-04-14T17:07:07.036Z</time></trkpt><trkpt lat="45.1228543" lon="7.4973477"><ele>358.0</ele><time>2026-04-14T17:07:09.038Z</time></trkpt><trkpt lat="45.1229406" lon="7.4972431"><ele>358.0</ele><time>2026-04-14T17:07:11.037Z</time></trkpt><trkpt lat="45.123034" lon="7.4971468"><ele>358.0</ele><time>2026-04-14T17:07:13.038Z</time></trkpt><trkpt lat="45.1231209" lon="7.4970381"><ele>358.0</ele><time>2026-04-14T17:07:15.037Z</time></trkpt><trkpt lat="45.1232143" lon="7.4969565"><ele>358.0</ele><time>2026-04-14T17:07:17.039Z</time></trkpt><trkpt lat="45.1233219" lon="7.4968751"><ele>358.0</ele><time>2026-04-14T17:07:19.038Z</time></trkpt><trkpt lat="45.1234219" lon="7.4967868"><ele>357.79999999999995</ele><time>2026-04-14T17:07:21.038Z</time></trkpt><trkpt lat="45.1235255" lon="7.4966974"><ele>357.6</ele><time>2026-04-14T17:07:23.038Z</time></trkpt><trkpt lat="45.1236185" lon="7.4966071"><ele>357.4</ele><time>2026-04-14T17:07:25.039Z</time></trkpt><trkpt lat="45.1236793" lon="7.4965649"><ele>357.20000000000005</ele><time>2026-04-14T17:07:26.038Z</time></trkpt><trkpt lat="45.1237849" lon="7.4964945"><ele>357.0</ele><time>2026-04-14T17:07:28.039Z</time></trkpt><trkpt lat="45.1238858" lon="7.4964263"><ele>357.0</ele><time>2026-04-14T17:07:30.039Z</time></trkpt><trkpt lat="45.123999" lon="7.4963549"><ele>357.0</ele><time>2026-04-14T17:07:32.047Z</time></trkpt><trkpt lat="45.1241155" lon="7.4962829"><ele>357.0</ele><time>2026-04-14T17:07:34.036Z</time></trkpt><trkpt lat="45.1242217" lon="7.4962063"><ele>357.0</ele><time>2026-04-14T17:07:36.049Z</time></trkpt><trkpt lat="45.1243264" lon="7.4961275"><ele>357.20000000000005</ele><time>2026-04-14T17:07:38.037Z</time></trkpt><trkpt lat="45.1244158" lon="7.496042"><ele>357.4</ele><time>2026-04-14T17:07:40.04Z</time></trkpt><trkpt lat="45.1245" lon="7.4959655"><ele>357.6</ele><time>2026-04-14T17:07:42.045Z</time></trkpt><trkpt lat="45.1245886" lon="7.4958774"><ele>357.79999999999995</ele><time>2026-04-14T17:07:44.039Z</time></trkpt><trkpt lat="45.1246774" lon="7.4958073"><ele>358.0</ele><time>2026-04-14T17:07:46.038Z</time></trkpt><trkpt lat="45.1247759" lon="7.4957353"><ele>358.0</ele><time>2026-04-14T17:07:48.039Z</time></trkpt><trkpt lat="45.1248591" lon="7.4956685"><ele>358.0</ele><time>2026-04-14T17:07:50.038Z</time></trkpt><trkpt lat="45.1249449" lon="7.4955998"><ele>358.0</ele><time>2026-04-14T17:07:52.04Z</time></trkpt><trkpt lat="45.1250327" lon="7.4955149"><ele>358.0</ele><time>2026-04-14T17:07:54.038Z</time></trkpt><trkpt lat="45.1251219" lon="7.4954456"><ele>358.0</ele><time>2026-04-14T17:07:56.039Z</time></trkpt><trkpt lat="45.1252065" lon="7.4953779"><ele>358.2</ele><time>2026-04-14T17:07:58.039Z</time></trkpt><trkpt lat="45.1253021" lon="7.4953296"><ele>358.4</ele><time>2026-04-14T17:08:00.039Z</time></trkpt><trkpt lat="45.1253872" lon="7.4952619"><ele>358.59999999999997</ele><time>2026-04-14T17:08:02.039Z</time></trkpt><trkpt lat="45.1254735" lon="7.4951956"><ele>358.79999999999995</ele><time>2026-04-14T17:08:04.036Z</time></trkpt><trkpt lat="45.1255697" lon="7.4951209"><ele>359.0</ele><time>2026-04-14T17:08:06.038Z</time></trkpt><trkpt lat="45.1256617" lon="7.4950505"><ele>359.0</ele><time>2026-04-14T17:08:08.031Z</time></trkpt><trkpt lat="45.1257611" lon="7.4949789"><ele>359.0</ele><time>2026-04-14T17:08:10.033Z</time></trkpt><trkpt lat="45.1258579" lon="7.4949062"><ele>359.0</ele><time>2026-04-14T17:08:12.033Z</time></trkpt><trkpt lat="45.1259654" lon="7.4948519"><ele>359.0</ele><time>2026-04-14T17:08:14.032Z</time></trkpt><trkpt lat="45.1260707" lon="7.4947764"><ele>359.0</ele><time>2026-04-14T17:08:16.034Z</time></trkpt><trkpt lat="45.1261662" lon="7.4946953"><ele>359.0</ele><time>2026-04-14T17:08:18.034Z</time></trkpt><trkpt lat="45.1262696" lon="7.4946146"><ele>359.0</ele><time>2026-04-14T17:08:20.034Z</time></trkpt><trkpt lat="45.1263765" lon="7.4945395"><ele>359.0</ele><time>2026-04-14T17:08:22.038Z</time></trkpt><trkpt lat="45.1264829" lon="7.4944557"><ele>359.25</ele><time>2026-04-14T17:08:24.037Z</time></trkpt><trkpt lat="45.1265905" lon="7.4943772"><ele>359.5</ele><time>2026-04-14T17:08:26.038Z</time></trkpt><trkpt lat="45.126686" lon="7.4942993"><ele>359.75</ele><time>2026-04-14T17:08:28.037Z</time></trkpt><trkpt lat="45.1267872" lon="7.4942132"><ele>360.0</ele><time>2026-04-14T17:08:30.041Z</time></trkpt><trkpt lat="45.1268878" lon="7.4941327"><ele>360.0</ele><time>2026-04-14T17:08:32.04Z</time></trkpt><trkpt lat="45.1269738" lon="7.4940691"><ele>360.0</ele><time>2026-04-14T17:08:34.048Z</time></trkpt><trkpt lat="45.1270616" lon="7.4939983"><ele>360.0</ele><time>2026-04-14T17:08:36.042Z</time></trkpt><trkpt lat="45.1271557" lon="7.4939293"><ele>360.0</ele><time>2026-04-14T17:08:38.036Z</time></trkpt><trkpt lat="45.1272456" lon="7.493858"><ele>360.0</ele><time>2026-04-14T17:08:40.036Z</time></trkpt><trkpt lat="45.1273303" lon="7.4937896"><ele>360.2</ele><time>2026-04-14T17:08:42.037Z</time></trkpt><trkpt lat="45.127421" lon="7.4937309"><ele>360.4</ele><time>2026-04-14T17:08:44.036Z</time></trkpt><trkpt lat="45.1275231" lon="7.4936837"><ele>360.6</ele><time>2026-04-14T17:08:46.034Z</time></trkpt><trkpt lat="45.127626" lon="7.4936622"><ele>360.8</ele><time>2026-04-14T17:08:48.033Z</time></trkpt><trkpt lat="45.127718" lon="7.4936768"><ele>361.0</ele><time>2026-04-14T17:08:50.032Z</time></trkpt><trkpt lat="45.127827" lon="7.4936888"><ele>361.0</ele><time>2026-04-14T17:08:52.025Z</time></trkpt><trkpt lat="45.1279401" lon="7.4936641"><ele>361.0</ele><time>2026-04-14T17:08:54.026Z</time></trkpt><trkpt lat="45.1280252" lon="7.4935532"><ele>361.0</ele><time>2026-04-14T17:08:56.032Z</time></trkpt><trkpt lat="45.1280509" lon="7.4934655"><ele>361.0</ele><time>2026-04-14T17:08:57.033Z</time></trkpt><trkpt lat="45.1280789" lon="7.4933824"><ele>361.0</ele><time>2026-04-14T17:08:58.034Z</time></trkpt><trkpt lat="45.1281138" lon="7.4933066"><ele>361.0</ele><time>2026-04-14T17:08:59.033Z</time></trkpt><trkpt lat="45.1281489" lon="7.4932307"><ele>361.0</ele><time>2026-04-14T17:09:00.03Z</time></trkpt><trkpt lat="45.1281902" lon="7.4931603"><ele>361.0</ele><time>2026-04-14T17:09:01.027Z</time></trkpt><trkpt lat="45.1282415" lon="7.493093"><ele>361.0</ele><time>2026-04-14T17:09:02.03Z</time></trkpt><trkpt lat="45.1283031" lon="7.4930345"><ele>361.0</ele><time>2026-04-14T17:09:03.025Z</time></trkpt><trkpt lat="45.1283705" lon="7.4929863"><ele>361.0</ele><time>2026-04-14T17:09:04.031Z</time></trkpt><trkpt lat="45.1284429" lon="7.4929374"><ele>361.0</ele><time>2026-04-14T17:09:05.041Z</time></trkpt><trkpt lat="45.128516" lon="7.4928883"><ele>361.0</ele><time>2026-04-14T17:09:06.038Z</time></trkpt><trkpt lat="45.1285928" lon="7.4928366"><ele>360.0</ele><time>2026-04-14T17:09:07.033Z</time></trkpt><trkpt lat="45.1286592" lon="7.4927798"><ele>359.0</ele><time>2026-04-14T17:09:08.038Z</time></trkpt><trkpt lat="45.1287347" lon="7.492724"><ele>358.0</ele><time>2026-04-14T17:09:09.028Z</time></trkpt><trkpt lat="45.1288112" lon="7.4926678"><ele>357.0</ele><time>2026-04-14T17:09:10.04Z</time></trkpt><trkpt lat="45.1288925" lon="7.492624"><ele>356.0</ele><time>2026-04-14T17:09:11.034Z</time></trkpt><trkpt lat="45.1289764" lon="7.4925792"><ele>355.0</ele><time>2026-04-14T17:09:12.037Z</time></trkpt><trkpt lat="45.1290636" lon="7.4925359"><ele>354.5</ele><time>2026-04-14T17:09:13.038Z</time></trkpt><trkpt lat="45.1291475" lon="7.4924764"><ele>354.0</ele><time>2026-04-14T17:09:14.038Z</time></trkpt><trkpt lat="45.1292304" lon="7.4924163"><ele>353.5</ele><time>2026-04-14T17:09:15.035Z</time></trkpt><trkpt lat="45.1293104" lon="7.4923687"><ele>353.0</ele><time>2026-04-14T17:09:16.037Z</time></trkpt><trkpt lat="45.1293872" lon="7.4923225"><ele>352.5</ele><time>2026-04-14T17:09:17.04Z</time></trkpt><trkpt lat="45.12947" lon="7.4922792"><ele>352.0</ele><time>2026-04-14T17:09:18.04Z</time></trkpt><trkpt lat="45.129547" lon="7.4922347"><ele>352.0</ele><time>2026-04-14T17:09:19.035Z</time></trkpt><trkpt lat="45.1296245" lon="7.492187"><ele>352.0</ele><time>2026-04-14T17:09:20.041Z</time></trkpt><trkpt lat="45.1297005" lon="7.4921439"><ele>352.0</ele><time>2026-04-14T17:09:21.039Z</time></trkpt><trkpt lat="45.1297734" lon="7.4921079"><ele>352.0</ele><time>2026-04-14T17:09:22.04Z</time></trkpt><trkpt lat="45.1298428" lon="7.492067"><ele>352.0</ele><time>2026-04-14T17:09:23.041Z</time></trkpt><trkpt lat="45.1299062" lon="7.4920217"><ele>352.0</ele><time>2026-04-14T17:09:24.04Z</time></trkpt><trkpt lat="45.1299708" lon="7.4919768"><ele>352.3333333333333</ele><time>2026-04-14T17:09:25.038Z</time></trkpt><trkpt lat="45.1300327" lon="7.4919382"><ele>352.66666666666663</ele><time>2026-04-14T17:09:26.038Z</time></trkpt><trkpt lat="45.130095" lon="7.4919015"><ele>353.0</ele><time>2026-04-14T17:09:27.038Z</time></trkpt><trkpt lat="45.1301582" lon="7.4918536"><ele>353.3333333333333</ele><time>2026-04-14T17:09:28.037Z</time></trkpt><trkpt lat="45.1302223" lon="7.4918174"><ele>353.6666666666667</ele><time>2026-04-14T17:09:29.041Z</time></trkpt><trkpt lat="45.1303326" lon="7.4917518"><ele>354.0</ele><time>2026-04-14T17:09:31.037Z</time></trkpt><trkpt lat="45.1304313" lon="7.4916866"><ele>354.0</ele><time>2026-04-14T17:09:33.039Z</time></trkpt><trkpt lat="45.1305211" lon="7.4916128"><ele>354.0</ele><time>2026-04-14T17:09:35.038Z</time></trkpt><trkpt lat="45.1306111" lon="7.4915464"><ele>354.0</ele><time>2026-04-14T17:09:37.039Z</time></trkpt><trkpt lat="45.1307046" lon="7.4914571"><ele>354.0</ele><time>2026-04-14T17:09:39.039Z</time></trkpt><trkpt lat="45.1307933" lon="7.4913878"><ele>354.0</ele><time>2026-04-14T17:09:41.04Z</time></trkpt><trkpt lat="45.1308806" lon="7.4912942"><ele>354.2</ele><time>2026-04-14T17:09:43.041Z</time></trkpt><trkpt lat="45.1309738" lon="7.4912084"><ele>354.4</ele><time>2026-04-14T17:09:45.037Z</time></trkpt><trkpt lat="45.1310556" lon="7.4911092"><ele>354.6</ele><time>2026-04-14T17:09:47.04Z</time></trkpt><trkpt lat="45.1311322" lon="7.4910023"><ele>354.8</ele><time>2026-04-14T17:09:49.038Z</time></trkpt><trkpt lat="45.1312157" lon="7.4908963"><ele>355.0</ele><time>2026-04-14T17:09:51.038Z</time></trkpt><trkpt lat="45.1313001" lon="7.4907774"><ele>355.0</ele><time>2026-04-14T17:09:53.039Z</time></trkpt><trkpt lat="45.1313765" lon="7.4906552"><ele>355.0</ele><time>2026-04-14T17:09:55.036Z</time></trkpt><trkpt lat="45.1314606" lon="7.490535"><ele>355.0</ele><time>2026-04-14T17:09:57.035Z</time></trkpt><trkpt lat="45.1315253" lon="7.4903933"><ele>355.0</ele><time>2026-04-14T17:09:59.037Z</time></trkpt><trkpt lat="45.1315984" lon="7.4902502"><ele>354.8</ele><time>2026-04-14T17:10:01.036Z</time></trkpt><trkpt lat="45.1316286" lon="7.4901683"><ele>354.6</ele><time>2026-04-14T17:10:02.039Z</time></trkpt><trkpt lat="45.131695" lon="7.4900203"><ele>354.4</ele><time>2026-04-14T17:10:04.039Z</time></trkpt><trkpt lat="45.131755" lon="7.4898639"><ele>354.2</ele><time>2026-04-14T17:10:06.044Z</time></trkpt><trkpt lat="45.1318142" lon="7.48972"><ele>354.0</ele><time>2026-04-14T17:10:08.039Z</time></trkpt><trkpt lat="45.1318783" lon="7.489572"><ele>354.0</ele><time>2026-04-14T17:10:10.038Z</time></trkpt><trkpt lat="45.1319323" lon="7.48942"><ele>354.0</ele><time>2026-04-14T17:10:12.037Z</time></trkpt><trkpt lat="45.1319919" lon="7.4892721"><ele>354.0</ele><time>2026-04-14T17:10:14.038Z</time></trkpt><trkpt lat="45.1320497" lon="7.4891426"><ele>354.0</ele><time>2026-04-14T17:10:16.039Z</time></trkpt><trkpt lat="45.1321132" lon="7.4890076"><ele>354.0</ele><time>2026-04-14T17:10:18.036Z</time></trkpt><trkpt lat="45.1321657" lon="7.4888566"><ele>354.0</ele><time>2026-04-14T17:10:20.039Z</time></trkpt><trkpt lat="45.1322189" lon="7.4887078"><ele>354.0</ele><time>2026-04-14T17:10:22.04Z</time></trkpt><trkpt lat="45.1322501" lon="7.4886289"><ele>354.0</ele><time>2026-04-14T17:10:23.039Z</time></trkpt><trkpt lat="45.1323065" lon="7.4884755"><ele>354.0</ele><time>2026-04-14T17:10:25.032Z</time></trkpt><trkpt lat="45.1323623" lon="7.4883286"><ele>354.0</ele><time>2026-04-14T17:10:27.04Z</time></trkpt><trkpt lat="45.1323926" lon="7.4882503"><ele>354.0</ele><time>2026-04-14T17:10:28.042Z</time></trkpt><trkpt lat="45.1324491" lon="7.4880927"><ele>354.0</ele><time>2026-04-14T17:10:30.04Z</time></trkpt><trkpt lat="45.1325133" lon="7.4879515"><ele>354.0</ele><time>2026-04-14T17:10:32.04Z</time></trkpt><trkpt lat="45.1325773" lon="7.4878087"><ele>354.0</ele><time>2026-04-14T17:10:34.04Z</time></trkpt><trkpt lat="45.1326203" lon="7.4876545"><ele>354.4</ele><time>2026-04-14T17:10:36.052Z</time></trkpt><trkpt lat="45.1326671" lon="7.4875067"><ele>354.79999999999995</ele><time>2026-04-14T17:10:38.052Z</time></trkpt><trkpt lat="45.1327204" lon="7.487356"><ele>355.20000000000005</ele><time>2026-04-14T17:10:40.04Z</time></trkpt><trkpt lat="45.1327838" lon="7.487235"><ele>355.6</ele><time>2026-04-14T17:10:42.041Z</time></trkpt><trkpt lat="45.1328203" lon="7.4871607"><ele>356.0</ele><time>2026-04-14T17:10:43.039Z</time></trkpt><trkpt lat="45.1328774" lon="7.4870178"><ele>356.0</ele><time>2026-04-14T17:10:45.04Z</time></trkpt><trkpt lat="45.1329336" lon="7.4868709"><ele>356.0</ele><time>2026-04-14T17:10:47.04Z</time></trkpt><trkpt lat="45.1329921" lon="7.4867208"><ele>356.0</ele><time>2026-04-14T17:10:49.037Z</time></trkpt><trkpt lat="45.1330599" lon="7.4865924"><ele>356.0</ele><time>2026-04-14T17:10:51.037Z</time></trkpt><trkpt lat="45.1331243" lon="7.4864647"><ele>356.0</ele><time>2026-04-14T17:10:53.04Z</time></trkpt><trkpt lat="45.133186" lon="7.4863438"><ele>356.0</ele><time>2026-04-14T17:10:55.039Z</time></trkpt><trkpt lat="45.1332534" lon="7.4862377"><ele>356.0</ele><time>2026-04-14T17:10:57.037Z</time></trkpt><trkpt lat="45.1333207" lon="7.4861177"><ele>356.0</ele><time>2026-04-14T17:10:59.039Z</time></trkpt><trkpt lat="45.1333947" lon="7.4859894"><ele>356.0</ele><time>2026-04-14T17:11:01.036Z</time></trkpt><trkpt lat="45.1334654" lon="7.4858745"><ele>355.6</ele><time>2026-04-14T17:11:03.034Z</time></trkpt><trkpt lat="45.1335372" lon="7.4857692"><ele>355.20000000000005</ele><time>2026-04-14T17:11:05.033Z</time></trkpt><trkpt lat="45.1336097" lon="7.4856736"><ele>354.79999999999995</ele><time>2026-04-14T17:11:07.038Z</time></trkpt><trkpt lat="45.1336933" lon="7.4856211"><ele>354.4</ele><time>2026-04-14T17:11:09.059Z</time></trkpt><trkpt lat="45.1337979" lon="7.4855898"><ele>354.0</ele><time>2026-04-14T17:11:11.034Z</time></trkpt><trkpt lat="45.133871" lon="7.4855192"><ele>354.6</ele><time>2026-04-14T17:11:13.036Z</time></trkpt><trkpt lat="45.1339383" lon="7.4854013"><ele>355.2</ele><time>2026-04-14T17:11:15.035Z</time></trkpt><trkpt lat="45.1339713" lon="7.4852673"><ele>355.8</ele><time>2026-04-14T17:11:17.035Z</time></trkpt><trkpt lat="45.1339768" lon="7.4851429"><ele>356.40000000000003</ele><time>2026-04-14T17:11:19.034Z</time></trkpt><trkpt lat="45.1339461" lon="7.4850378"><ele>357.0</ele><time>2026-04-14T17:11:21.027Z</time></trkpt><trkpt lat="45.1338859" lon="7.4849286"><ele>357.0</ele><time>2026-04-14T17:11:23.033Z</time></trkpt><trkpt lat="45.1338192" lon="7.4848473"><ele>357.0</ele><time>2026-04-14T17:11:25.034Z</time></trkpt><trkpt lat="45.1337341" lon="7.4848147"><ele>357.0</ele><time>2026-04-14T17:11:27.029Z</time></trkpt><trkpt lat="45.1336333" lon="7.4848487"><ele>357.0</ele><time>2026-04-14T17:11:29.034Z</time></trkpt><trkpt lat="45.1335357" lon="7.4849331"><ele>357.0</ele><time>2026-04-14T17:11:31.031Z</time></trkpt><trkpt lat="45.1334924" lon="7.4849987"><ele>357.0</ele><time>2026-04-14T17:11:32.032Z</time></trkpt><trkpt lat="45.1334451" lon="7.4851489"><ele>357.0</ele><time>2026-04-14T17:11:34.032Z</time></trkpt><trkpt lat="45.1334404" lon="7.4853067"><ele>357.0</ele><time>2026-04-14T17:11:36.041Z</time></trkpt><trkpt lat="45.1334468" lon="7.4854777"><ele>357.0</ele><time>2026-04-14T17:11:38.037Z</time></trkpt><trkpt lat="45.1334383" lon="7.4856208"><ele>356.8</ele><time>2026-04-14T17:11:40.036Z</time></trkpt><trkpt lat="45.1334117" lon="7.485781"><ele>356.6</ele><time>2026-04-14T17:11:42.036Z</time></trkpt><trkpt lat="45.133363" lon="7.485939"><ele>356.40000000000003</ele><time>2026-04-14T17:11:44.033Z</time></trkpt><trkpt lat="45.1333289" lon="7.4860194"><ele>356.20000000000005</ele><time>2026-04-14T17:11:45.033Z</time></trkpt><trkpt lat="45.133261" lon="7.4861602"><ele>356.0</ele><time>2026-04-14T17:11:47.032Z</time></trkpt><trkpt lat="45.1331849" lon="7.4862859"><ele>356.0</ele><time>2026-04-14T17:11:49.034Z</time></trkpt><trkpt lat="45.1330962" lon="7.4864037"><ele>356.0</ele><time>2026-04-14T17:11:51.035Z</time></trkpt><trkpt lat="45.1330313" lon="7.486544"><ele>356.0</ele><time>2026-04-14T17:11:53.036Z</time></trkpt><trkpt lat="45.1329712" lon="7.4866775"><ele>356.0</ele><time>2026-04-14T17:11:55.036Z</time></trkpt><trkpt lat="45.132921" lon="7.4868137"><ele>356.0</ele><time>2026-04-14T17:11:57.043Z</time></trkpt><trkpt lat="45.1328869" lon="7.4868901"><ele>356.0</ele><time>2026-04-14T17:11:58.046Z</time></trkpt><trkpt lat="45.132836" lon="7.4870399"><ele>356.0</ele><time>2026-04-14T17:12:00.043Z</time></trkpt><trkpt lat="45.1327883" lon="7.487179"><ele>356.0</ele><time>2026-04-14T17:12:02.042Z</time></trkpt><trkpt lat="45.1327414" lon="7.4873201"><ele>356.0</ele><time>2026-04-14T17:12:04.041Z</time></trkpt><trkpt lat="45.1326738" lon="7.4874554"><ele>356.0</ele><time>2026-04-14T17:12:06.046Z</time></trkpt><trkpt lat="45.1326041" lon="7.487585"><ele>356.0</ele><time>2026-04-14T17:12:08.032Z</time></trkpt><trkpt lat="45.132548" lon="7.4877257"><ele>356.0</ele><time>2026-04-14T17:12:10.045Z</time></trkpt><trkpt lat="45.1324928" lon="7.4878438"><ele>356.0</ele><time>2026-04-14T17:12:12.035Z</time></trkpt><trkpt lat="45.1324511" lon="7.4879723"><ele>356.0</ele><time>2026-04-14T17:12:14.036Z</time></trkpt><trkpt lat="45.1323947" lon="7.4880835"><ele>356.4</ele><time>2026-04-14T17:12:16.038Z</time></trkpt><trkpt lat="45.1323574" lon="7.488207"><ele>356.8</ele><time>2026-04-14T17:12:18.037Z</time></trkpt><trkpt lat="45.1323144" lon="7.4883279"><ele>357.2</ele><time>2026-04-14T17:12:20.035Z</time></trkpt><trkpt lat="45.1322697" lon="7.4884575"><ele>357.59999999999997</ele><time>2026-04-14T17:12:22.036Z</time></trkpt><trkpt lat="45.1322197" lon="7.4885763"><ele>358.0</ele><time>2026-04-14T17:12:24.034Z</time></trkpt><trkpt lat="45.1321702" lon="7.48869"><ele>357.2</ele><time>2026-04-14T17:12:26.032Z</time></trkpt><trkpt lat="45.132116" lon="7.4888045"><ele>356.4</ele><time>2026-04-14T17:12:28.037Z</time></trkpt><trkpt lat="45.1320655" lon="7.4889262"><ele>355.59999999999997</ele><time>2026-04-14T17:12:30.033Z</time></trkpt><trkpt lat="45.1320266" lon="7.4890755"><ele>354.79999999999995</ele><time>2026-04-14T17:12:32.039Z</time></trkpt><trkpt lat="45.1319861" lon="7.4892179"><ele>354.0</ele><time>2026-04-14T17:12:34.036Z</time></trkpt><trkpt lat="45.1319218" lon="7.4893532"><ele>354.0</ele><time>2026-04-14T17:12:36.045Z</time></trkpt><trkpt lat="45.1318748" lon="7.4894904"><ele>354.0</ele><time>2026-04-14T17:12:38.039Z</time></trkpt><trkpt lat="45.1318247" lon="7.489622"><ele>354.0</ele><time>2026-04-14T17:12:40.037Z</time></trkpt><trkpt lat="45.1317665" lon="7.4897555"><ele>354.0</ele><time>2026-04-14T17:12:42.036Z</time></trkpt><trkpt lat="45.1317197" lon="7.4898866"><ele>354.0</ele><time>2026-04-14T17:12:44.032Z</time></trkpt><trkpt lat="45.1316657" lon="7.490008"><ele>354.0</ele><time>2026-04-14T17:12:46.034Z</time></trkpt><trkpt lat="45.1316167" lon="7.4901463"><ele>354.0</ele><time>2026-04-14T17:12:48.035Z</time></trkpt><trkpt lat="45.1315651" lon="7.4902813"><ele>354.0</ele><time>2026-04-14T17:12:50.039Z</time></trkpt><trkpt lat="45.1315004" lon="7.4904058"><ele>354.0</ele><time>2026-04-14T17:12:52.035Z</time></trkpt><trkpt lat="45.1314316" lon="7.4905281"><ele>354.0</ele><time>2026-04-14T17:12:54.037Z</time></trkpt><trkpt lat="45.1313531" lon="7.4906457"><ele>354.2</ele><time>2026-04-14T17:12:56.035Z</time></trkpt><trkpt lat="45.1312736" lon="7.4907653"><ele>354.4</ele><time>2026-04-14T17:12:58.037Z</time></trkpt><trkpt lat="45.1312259" lon="7.4908246"><ele>354.6</ele><time>2026-04-14T17:12:59.035Z</time></trkpt><trkpt lat="45.1311427" lon="7.4909363"><ele>354.8</ele><time>2026-04-14T17:13:01.035Z</time></trkpt><trkpt lat="45.1310656" lon="7.4910466"><ele>355.0</ele><time>2026-04-14T17:13:03.035Z</time></trkpt><trkpt lat="45.1309883" lon="7.4911446"><ele>355.0</ele><time>2026-04-14T17:13:05.037Z</time></trkpt><trkpt lat="45.1309001" lon="7.491256"><ele>355.0</ele><time>2026-04-14T17:13:07.031Z</time></trkpt><trkpt lat="45.1308034" lon="7.4913535"><ele>355.0</ele><time>2026-04-14T17:13:09.035Z</time></trkpt><trkpt lat="45.130698" lon="7.4914492"><ele>355.0</ele><time>2026-04-14T17:13:11.034Z</time></trkpt><trkpt lat="45.1306383" lon="7.4914924"><ele>355.0</ele><time>2026-04-14T17:13:12.048Z</time></trkpt><trkpt lat="45.130579" lon="7.4915318"><ele>354.8</ele><time>2026-04-14T17:13:13.036Z</time></trkpt><trkpt lat="45.1304739" lon="7.4916111"><ele>354.6</ele><time>2026-04-14T17:13:15.031Z</time></trkpt><trkpt lat="45.1303631" lon="7.491674"><ele>354.4</ele><time>2026-04-14T17:13:17.036Z</time></trkpt><trkpt lat="45.1302525" lon="7.4917426"><ele>354.2</ele><time>2026-04-14T17:13:19.033Z</time></trkpt><trkpt lat="45.130195" lon="7.4917923"><ele>354.0</ele><time>2026-04-14T17:13:20.036Z</time></trkpt><trkpt lat="45.130082" lon="7.4918697"><ele>354.0</ele><time>2026-04-14T17:13:22.039Z</time></trkpt><trkpt lat="45.1300198" lon="7.4919057"><ele>354.0</ele><time>2026-04-14T17:13:23.033Z</time></trkpt><trkpt lat="45.1299634" lon="7.4919506"><ele>354.0</ele><time>2026-04-14T17:13:24.03Z</time></trkpt><trkpt lat="45.1298501" lon="7.4920183"><ele>354.0</ele><time>2026-04-14T17:13:26.03Z</time></trkpt><trkpt lat="45.1297868" lon="7.4920625"><ele>354.0</ele><time>2026-04-14T17:13:27.029Z</time></trkpt><trkpt lat="45.1297227" lon="7.4921118"><ele>354.0</ele><time>2026-04-14T17:13:28.029Z</time></trkpt><trkpt lat="45.129652" lon="7.4921424"><ele>353.6</ele><time>2026-04-14T17:13:29.028Z</time></trkpt><trkpt lat="45.1295919" lon="7.4921768"><ele>353.2</ele><time>2026-04-14T17:13:30.028Z</time></trkpt><trkpt lat="45.1294813" lon="7.4922545"><ele>352.8</ele><time>2026-04-14T17:13:32.029Z</time></trkpt><trkpt lat="45.1294213" lon="7.4922923"><ele>352.40000000000003</ele><time>2026-04-14T17:13:33.027Z</time></trkpt><trkpt lat="45.12931" lon="7.4923563"><ele>352.0</ele><time>2026-04-14T17:13:35.028Z</time></trkpt><trkpt lat="45.1292001" lon="7.4924213"><ele>352.0</ele><time>2026-04-14T17:13:37.03Z</time></trkpt><trkpt lat="45.1290969" lon="7.4924795"><ele>352.0</ele><time>2026-04-14T17:13:39.034Z</time></trkpt><trkpt lat="45.1289931" lon="7.4925473"><ele>352.0</ele><time>2026-04-14T17:13:41.036Z</time></trkpt><trkpt lat="45.1289012" lon="7.4926114"><ele>352.0</ele><time>2026-04-14T17:13:43.04Z</time></trkpt><trkpt lat="45.1288205" lon="7.4926672"><ele>352.0</ele><time>2026-04-14T17:13:45.029Z</time></trkpt><trkpt lat="45.1287501" lon="7.4927261"><ele>352.5</ele><time>2026-04-14T17:13:47.03Z</time></trkpt><trkpt lat="45.1286802" lon="7.4927849"><ele>353.0</ele><time>2026-04-14T17:13:49.034Z</time></trkpt><trkpt lat="45.1285935" lon="7.4928162"><ele>353.5</ele><time>2026-04-14T17:13:51.033Z</time></trkpt><trkpt lat="45.1285273" lon="7.4928656"><ele>354.0</ele><time>2026-04-14T17:13:53.035Z</time></trkpt><trkpt lat="45.1284486" lon="7.4928955"><ele>354.5</ele><time>2026-04-14T17:13:55.032Z</time></trkpt><trkpt lat="45.1283899" lon="7.4929587"><ele>355.0</ele><time>2026-04-14T17:13:57.031Z</time></trkpt><trkpt lat="45.128322" lon="7.4930019"><ele>355.16666666666663</ele><time>2026-04-14T17:13:59.031Z</time></trkpt><trkpt lat="45.1282531" lon="7.4930548"><ele>355.3333333333333</ele><time>2026-04-14T17:14:01.019Z</time></trkpt><trkpt lat="45.1281773" lon="7.4930985"><ele>355.5</ele><time>2026-04-14T17:14:03.028Z</time></trkpt><trkpt lat="45.1281035" lon="7.4931305"><ele>355.6666666666667</ele><time>2026-04-14T17:14:05.029Z</time></trkpt><trkpt lat="45.1280043" lon="7.4931558"><ele>355.83333333333337</ele><time>2026-04-14T17:14:08.029Z</time></trkpt><trkpt lat="45.1279319" lon="7.4931499"><ele>356.0</ele><time>2026-04-14T17:14:10.031Z</time></trkpt><trkpt lat="45.1278646" lon="7.4931193"><ele>356.71428571428567</ele><time>2026-04-14T17:14:12.022Z</time></trkpt><trkpt lat="45.1278009" lon="7.4930828"><ele>357.42857142857144</ele><time>2026-04-14T17:14:14.04Z</time></trkpt><trkpt lat="45.1277366" lon="7.4930271"><ele>358.1428571428571</ele><time>2026-04-14T17:14:16.028Z</time></trkpt><trkpt lat="45.127673" lon="7.4929652"><ele>358.85714285714283</ele><time>2026-04-14T17:14:18.03Z</time></trkpt><trkpt lat="45.127623" lon="7.492895"><ele>359.57142857142856</ele><time>2026-04-14T17:14:20.024Z</time></trkpt><trkpt lat="45.1275643" lon="7.4928202"><ele>360.2857142857143</ele><time>2026-04-14T17:14:22.024Z</time></trkpt><trkpt lat="45.1275127" lon="7.4927414"><ele>361.0</ele><time>2026-04-14T17:14:24.025Z</time></trkpt><trkpt lat="45.1274603" lon="7.4926566"><ele>361.16666666666663</ele><time>2026-04-14T17:14:26.029Z</time></trkpt><trkpt lat="45.1274124" lon="7.4925629"><ele>361.3333333333333</ele><time>2026-04-14T17:14:28.034Z</time></trkpt><trkpt lat="45.1273608" lon="7.4924774"><ele>361.5</ele><time>2026-04-14T17:14:30.038Z</time></trkpt><trkpt lat="45.1273037" lon="7.4924011"><ele>361.6666666666667</ele><time>2026-04-14T17:14:32.031Z</time></trkpt><trkpt lat="45.1272426" lon="7.4923355"><ele>361.83333333333337</ele><time>2026-04-14T17:14:34.031Z</time></trkpt><trkpt lat="45.1271902" lon="7.4922506"><ele>362.0</ele><time>2026-04-14T17:14:36.037Z</time></trkpt><trkpt lat="45.1271448" lon="7.4921755"><ele>362.33333333333337</ele><time>2026-04-14T17:14:38.029Z</time></trkpt><trkpt lat="45.1270963" lon="7.4921069"><ele>362.6666666666667</ele><time>2026-04-14T17:14:40.034Z</time></trkpt><trkpt lat="45.1270467" lon="7.4920179"><ele>363.0</ele><time>2026-04-14T17:14:42.035Z</time></trkpt><trkpt lat="45.1270047" lon="7.4919281"><ele>363.3333333333333</ele><time>2026-04-14T17:14:44.034Z</time></trkpt><trkpt lat="45.1269487" lon="7.4918478"><ele>363.66666666666663</ele><time>2026-04-14T17:14:46.036Z</time></trkpt><trkpt lat="45.1268922" lon="7.491769"><ele>364.0</ele><time>2026-04-14T17:14:48.035Z</time></trkpt><trkpt lat="45.1268356" lon="7.4916859"><ele>364.3333333333333</ele><time>2026-04-14T17:14:50.035Z</time></trkpt><trkpt lat="45.1267751" lon="7.4916126"><ele>364.66666666666663</ele><time>2026-04-14T17:14:52.034Z</time></trkpt><trkpt lat="45.1267189" lon="7.4915218"><ele>365.0</ele><time>2026-04-14T17:14:54.033Z</time></trkpt><trkpt lat="45.1266654" lon="7.4914426"><ele>365.3333333333333</ele><time>2026-04-14T17:14:56.032Z</time></trkpt><trkpt lat="45.1266098" lon="7.4913745"><ele>365.6666666666667</ele><time>2026-04-14T17:14:58.031Z</time></trkpt><trkpt lat="45.1265402" lon="7.4912983"><ele>366.0</ele><time>2026-04-14T17:15:00.036Z</time></trkpt><trkpt lat="45.126486" lon="7.4912218"><ele>366.1666666666667</ele><time>2026-04-14T17:15:02.033Z</time></trkpt><trkpt lat="45.1264137" lon="7.4911476"><ele>366.3333333333333</ele><time>2026-04-14T17:15:04.035Z</time></trkpt><trkpt lat="45.1263398" lon="7.4910852"><ele>366.5</ele><time>2026-04-14T17:15:06.038Z</time></trkpt><trkpt lat="45.1262624" lon="7.4910223"><ele>366.66666666666663</ele><time>2026-04-14T17:15:08.04Z</time></trkpt><trkpt lat="45.126192" lon="7.4909519"><ele>366.8333333333333</ele><time>2026-04-14T17:15:10.039Z</time></trkpt><trkpt lat="45.1261236" lon="7.4908855"><ele>367.0</ele><time>2026-04-14T17:15:12.034Z</time></trkpt><trkpt lat="45.1260501" lon="7.4908137"><ele>367.0</ele><time>2026-04-14T17:15:14.034Z</time></trkpt><trkpt lat="45.1259698" lon="7.4907715"><ele>367.0</ele><time>2026-04-14T17:15:16.045Z</time></trkpt><trkpt lat="45.1258883" lon="7.4907415"><ele>367.0</ele><time>2026-04-14T17:15:18.033Z</time></trkpt><trkpt lat="45.1258153" lon="7.4906928"><ele>367.0</ele><time>2026-04-14T17:15:20.033Z</time></trkpt><trkpt lat="45.1257328" lon="7.4906525"><ele>367.0</ele><time>2026-04-14T17:15:22.032Z</time></trkpt><trkpt lat="45.1256454" lon="7.4906211"><ele>367.0</ele><time>2026-04-14T17:15:24.033Z</time></trkpt><trkpt lat="45.1255529" lon="7.4905827"><ele>367.0</ele><time>2026-04-14T17:15:26.034Z</time></trkpt><trkpt lat="45.1254732" lon="7.4905469"><ele>367.0</ele><time>2026-04-14T17:15:28.033Z</time></trkpt><trkpt lat="45.1253901" lon="7.4905158"><ele>367.0</ele><time>2026-04-14T17:15:30.035Z</time></trkpt><trkpt lat="45.1253122" lon="7.4904826"><ele>367.0</ele><time>2026-04-14T17:15:32.031Z</time></trkpt><trkpt lat="45.1252287" lon="7.4904408"><ele>367.0</ele><time>2026-04-14T17:15:34.033Z</time></trkpt><trkpt lat="45.1251443" lon="7.4904038"><ele>367.0</ele><time>2026-04-14T17:15:36.038Z</time></trkpt><trkpt lat="45.1250658" lon="7.4903688"><ele>367.0</ele><time>2026-04-14T17:15:38.038Z</time></trkpt><trkpt lat="45.1249858" lon="7.4903331"><ele>367.0</ele><time>2026-04-14T17:15:40.04Z</time></trkpt><trkpt lat="45.1249124" lon="7.4902907"><ele>367.0</ele><time>2026-04-14T17:15:42.037Z</time></trkpt><trkpt lat="45.1248356" lon="7.4902366"><ele>367.0</ele><time>2026-04-14T17:15:44.034Z</time></trkpt><trkpt lat="45.1247439" lon="7.4901988"><ele>367.0</ele><time>2026-04-14T17:15:46.035Z</time></trkpt><trkpt lat="45.1246612" lon="7.4901588"><ele>367.0</ele><time>2026-04-14T17:15:48.035Z</time></trkpt><trkpt lat="45.1245774" lon="7.4901179"><ele>367.6</ele><time>2026-04-14T17:15:50.03Z</time></trkpt><trkpt lat="45.1244937" lon="7.4900817"><ele>368.20000000000005</ele><time>2026-04-14T17:15:52.027Z</time></trkpt><trkpt lat="45.1244042" lon="7.4900304"><ele>368.8</ele><time>2026-04-14T17:15:54.031Z</time></trkpt><trkpt lat="45.1243238" lon="7.4899853"><ele>369.4</ele><time>2026-04-14T17:15:56.037Z</time></trkpt><trkpt lat="45.1242354" lon="7.4899438"><ele>370.0</ele><time>2026-04-14T17:15:58.042Z</time></trkpt><trkpt lat="45.1241382" lon="7.4898946"><ele>370.0</ele><time>2026-04-14T17:16:00.038Z</time></trkpt><trkpt lat="45.1240386" lon="7.4898525"><ele>370.0</ele><time>2026-04-14T17:16:02.038Z</time></trkpt><trkpt lat="45.1239468" lon="7.4898049"><ele>370.0</ele><time>2026-04-14T17:16:04.04Z</time></trkpt><trkpt lat="45.1238473" lon="7.4897502"><ele>370.0</ele><time>2026-04-14T17:16:06.044Z</time></trkpt><trkpt lat="45.1237615" lon="7.489712"><ele>370.0</ele><time>2026-04-14T17:16:08.032Z</time></trkpt><trkpt lat="45.1236744" lon="7.489678"><ele>370.0</ele><time>2026-04-14T17:16:10.035Z</time></trkpt><trkpt lat="45.1235817" lon="7.4896389"><ele>370.0</ele><time>2026-04-14T17:16:12.037Z</time></trkpt><trkpt lat="45.1234973" lon="7.4895919"><ele>370.0</ele><time>2026-04-14T17:16:14.039Z</time></trkpt><trkpt lat="45.1234016" lon="7.4895335"><ele>370.0</ele><time>2026-04-14T17:16:16.04Z</time></trkpt><trkpt lat="45.1233066" lon="7.4894817"><ele>370.0</ele><time>2026-04-14T17:16:18.035Z</time></trkpt><trkpt lat="45.1232088" lon="7.4894367"><ele>369.8</ele><time>2026-04-14T17:16:20.035Z</time></trkpt><trkpt lat="45.1231056" lon="7.4894015"><ele>369.6</ele><time>2026-04-14T17:16:22.032Z</time></trkpt><trkpt lat="45.1230105" lon="7.4893479"><ele>369.4</ele><time>2026-04-14T17:16:24.028Z</time></trkpt><trkpt lat="45.1228997" lon="7.4893031"><ele>369.2</ele><time>2026-04-14T17:16:26.027Z</time></trkpt><trkpt lat="45.1227937" lon="7.489242"><ele>369.0</ele><time>2026-04-14T17:16:28.024Z</time></trkpt><trkpt lat="45.1226999" lon="7.4891999"><ele>369.0</ele><time>2026-04-14T17:16:30.037Z</time></trkpt><trkpt lat="45.1225962" lon="7.4891514"><ele>369.0</ele><time>2026-04-14T17:16:32.031Z</time></trkpt><trkpt lat="45.1224869" lon="7.489104"><ele>369.0</ele><time>2026-04-14T17:16:34.034Z</time></trkpt><trkpt lat="45.1224238" lon="7.4890712"><ele>369.0</ele><time>2026-04-14T17:16:35.039Z</time></trkpt><trkpt lat="45.1223301" lon="7.4890131"><ele>369.0</ele><time>2026-04-14T17:16:37.041Z</time></trkpt><trkpt lat="45.1222296" lon="7.4889687"><ele>369.6</ele><time>2026-04-14T17:16:39.041Z</time></trkpt><trkpt lat="45.1221334" lon="7.488929"><ele>370.2</ele><time>2026-04-14T17:16:41.035Z</time></trkpt><trkpt lat="45.1220336" lon="7.4888746"><ele>370.8</ele><time>2026-04-14T17:16:43.039Z</time></trkpt><trkpt lat="45.1219428" lon="7.4888273"><ele>371.40000000000003</ele><time>2026-04-14T17:16:45.04Z</time></trkpt><trkpt lat="45.1218354" lon="7.4887908"><ele>372.0</ele><time>2026-04-14T17:16:47.041Z</time></trkpt><trkpt lat="45.1217329" lon="7.4887602"><ele>371.8</ele><time>2026-04-14T17:16:49.034Z</time></trkpt><trkpt lat="45.121628" lon="7.4887209"><ele>371.6</ele><time>2026-04-14T17:16:51.036Z</time></trkpt><trkpt lat="45.1215219" lon="7.4886766"><ele>371.40000000000003</ele><time>2026-04-14T17:16:53.038Z</time></trkpt><trkpt lat="45.1214317" lon="7.4886479"><ele>371.20000000000005</ele><time>2026-04-14T17:16:55.041Z</time></trkpt><trkpt lat="45.1213362" lon="7.4886137"><ele>371.0</ele><time>2026-04-14T17:16:57.039Z</time></trkpt><trkpt lat="45.1212302" lon="7.4885848"><ele>372.20000000000005</ele><time>2026-04-14T17:16:59.036Z</time></trkpt><trkpt lat="45.1211246" lon="7.4885626"><ele>373.40000000000003</ele><time>2026-04-14T17:17:01.031Z</time></trkpt><trkpt lat="45.1210268" lon="7.488517"><ele>374.6</ele><time>2026-04-14T17:17:03.034Z</time></trkpt><trkpt lat="45.1209306" lon="7.4884808"><ele>375.8</ele><time>2026-04-14T17:17:05.035Z</time></trkpt><trkpt lat="45.1208415" lon="7.488459"><ele>377.0</ele><time>2026-04-14T17:17:07.042Z</time></trkpt><trkpt lat="45.1207483" lon="7.4884322"><ele>377.0</ele><time>2026-04-14T17:17:09.044Z</time></trkpt><trkpt lat="45.1206523" lon="7.4884064"><ele>377.0</ele><time>2026-04-14T17:17:11.037Z</time></trkpt><trkpt lat="45.1205527" lon="7.4883816"><ele>377.0</ele><time>2026-04-14T17:17:13.039Z</time></trkpt><trkpt lat="45.1204588" lon="7.4883547"><ele>377.0</ele><time>2026-04-14T17:17:15.041Z</time></trkpt><trkpt lat="45.1203515" lon="7.4883417"><ele>377.0</ele><time>2026-04-14T17:17:17.039Z</time></trkpt><trkpt lat="45.1202507" lon="7.4883223"><ele>377.0</ele><time>2026-04-14T17:17:19.045Z</time></trkpt><trkpt lat="45.1201416" lon="7.4882839"><ele>377.0</ele><time>2026-04-14T17:17:21.037Z</time></trkpt><trkpt lat="45.1200403" lon="7.4882551"><ele>377.0</ele><time>2026-04-14T17:17:23.038Z</time></trkpt><trkpt lat="45.1199351" lon="7.4882236"><ele>377.0</ele><time>2026-04-14T17:17:25.041Z</time></trkpt><trkpt lat="45.119825" lon="7.4882074"><ele>377.0</ele><time>2026-04-14T17:17:27.043Z</time></trkpt><trkpt lat="45.1197068" lon="7.4881868"><ele>377.0</ele><time>2026-04-14T17:17:29.044Z</time></trkpt><trkpt lat="45.1195902" lon="7.4881455"><ele>377.0</ele><time>2026-04-14T17:17:31.038Z</time></trkpt><trkpt lat="45.1195259" lon="7.4881237"><ele>377.0</ele><time>2026-04-14T17:17:32.042Z</time></trkpt><trkpt lat="45.1194618" lon="7.4881029"><ele>377.0</ele><time>2026-04-14T17:17:33.039Z</time></trkpt><trkpt lat="45.1193527" lon="7.4880629"><ele>377.0</ele><time>2026-04-14T17:17:35.036Z</time></trkpt><trkpt lat="45.1192297" lon="7.4880343"><ele>377.0</ele><time>2026-04-14T17:17:37.039Z</time></trkpt><trkpt lat="45.1191684" lon="7.4880103"><ele>377.0</ele><time>2026-04-14T17:17:38.043Z</time></trkpt><trkpt lat="45.1190544" lon="7.487948"><ele>377.0</ele><time>2026-04-14T17:17:40.041Z</time></trkpt><trkpt lat="45.1189319" lon="7.4878839"><ele>377.0</ele><time>2026-04-14T17:17:42.034Z</time></trkpt><trkpt lat="45.1188131" lon="7.4878197"><ele>377.0</ele><time>2026-04-14T17:17:44.036Z</time></trkpt><trkpt lat="45.118749" lon="7.487792"><ele>376.5</ele><time>2026-04-14T17:17:45.036Z</time></trkpt><trkpt lat="45.1186216" lon="7.4877361"><ele>376.0</ele><time>2026-04-14T17:17:47.034Z</time></trkpt><trkpt lat="45.118556" lon="7.487713"><ele>375.5</ele><time>2026-04-14T17:17:48.033Z</time></trkpt><trkpt lat="45.1184391" lon="7.4876528"><ele>375.0</ele><time>2026-04-14T17:17:50.044Z</time></trkpt><trkpt lat="45.1183196" lon="7.4875885"><ele>375.0</ele><time>2026-04-14T17:17:52.04Z</time></trkpt><trkpt lat="45.1182578" lon="7.4875565"><ele>375.0</ele><time>2026-04-14T17:17:53.033Z</time></trkpt><trkpt lat="45.1181886" lon="7.487528"><ele>375.0</ele><time>2026-04-14T17:17:54.044Z</time></trkpt><trkpt lat="45.1181172" lon="7.4875025"><ele>375.0</ele><time>2026-04-14T17:17:55.042Z</time></trkpt><trkpt lat="45.118048" lon="7.4874713"><ele>375.0</ele><time>2026-04-14T17:17:56.036Z</time></trkpt><trkpt lat="45.1179783" lon="7.4874371"><ele>375.0</ele><time>2026-04-14T17:17:57.038Z</time></trkpt><trkpt lat="45.1179151" lon="7.4874056"><ele>375.0</ele><time>2026-04-14T17:17:58.034Z</time></trkpt><trkpt lat="45.1178455" lon="7.4873716"><ele>374.42857142857144</ele><time>2026-04-14T17:17:59.041Z</time></trkpt><trkpt lat="45.1177784" lon="7.487347"><ele>373.85714285714283</ele><time>2026-04-14T17:18:00.037Z</time></trkpt><trkpt lat="45.1177075" lon="7.487317"><ele>373.2857142857143</ele><time>2026-04-14T17:18:01.036Z</time></trkpt><trkpt lat="45.1176412" lon="7.4872882"><ele>372.7142857142857</ele><time>2026-04-14T17:18:02.041Z</time></trkpt><trkpt lat="45.1175744" lon="7.4872565"><ele>372.1428571428571</ele><time>2026-04-14T17:18:03.039Z</time></trkpt><trkpt lat="45.1175025" lon="7.4872194"><ele>371.57142857142856</ele><time>2026-04-14T17:18:04.038Z</time></trkpt><trkpt lat="45.1174336" lon="7.4871769"><ele>371.0</ele><time>2026-04-14T17:18:05.041Z</time></trkpt><trkpt lat="45.1173655" lon="7.487139"><ele>370.7142857142857</ele><time>2026-04-14T17:18:06.048Z</time></trkpt><trkpt lat="45.1173009" lon="7.4871"><ele>370.42857142857144</ele><time>2026-04-14T17:18:07.041Z</time></trkpt><trkpt lat="45.1172401" lon="7.4870621"><ele>370.1428571428571</ele><time>2026-04-14T17:18:08.044Z</time></trkpt><trkpt lat="45.1171723" lon="7.4870246"><ele>369.8571428571429</ele><time>2026-04-14T17:18:09.04Z</time></trkpt><trkpt lat="45.1171032" lon="7.4869922"><ele>369.57142857142856</ele><time>2026-04-14T17:18:10.042Z</time></trkpt><trkpt lat="45.1170365" lon="7.4869689"><ele>369.2857142857143</ele><time>2026-04-14T17:18:11.042Z</time></trkpt><trkpt lat="45.1169671" lon="7.4869464"><ele>369.0</ele><time>2026-04-14T17:18:12.041Z</time></trkpt><trkpt lat="45.1169037" lon="7.4869112"><ele>369.0</ele><time>2026-04-14T17:18:13.042Z</time></trkpt><trkpt lat="45.1168377" lon="7.4868695"><ele>369.0</ele><time>2026-04-14T17:18:14.043Z</time></trkpt><trkpt lat="45.1167686" lon="7.4868387"><ele>369.0</ele><time>2026-04-14T17:18:15.038Z</time></trkpt><trkpt lat="45.1167092" lon="7.4868055"><ele>369.0</ele><time>2026-04-14T17:18:16.043Z</time></trkpt><trkpt lat="45.1166449" lon="7.4867815"><ele>369.0</ele><time>2026-04-14T17:18:17.044Z</time></trkpt><trkpt lat="45.1165792" lon="7.4867569"><ele>369.0</ele><time>2026-04-14T17:18:18.044Z</time></trkpt><trkpt lat="45.1165118" lon="7.4867363"><ele>369.0</ele><time>2026-04-14T17:18:19.045Z</time></trkpt><trkpt lat="45.1164467" lon="7.4867186"><ele>369.1428571428571</ele><time>2026-04-14T17:18:20.047Z</time></trkpt><trkpt lat="45.1163817" lon="7.486691"><ele>369.2857142857143</ele><time>2026-04-14T17:18:21.054Z</time></trkpt><trkpt lat="45.116314" lon="7.4866621"><ele>369.42857142857144</ele><time>2026-04-14T17:18:22.047Z</time></trkpt><trkpt lat="45.1162526" lon="7.4866243"><ele>369.57142857142856</ele><time>2026-04-14T17:18:23.044Z</time></trkpt><trkpt lat="45.116196" lon="7.4865834"><ele>369.7142857142857</ele><time>2026-04-14T17:18:24.045Z</time></trkpt><trkpt lat="45.1161353" lon="7.4865502"><ele>369.85714285714283</ele><time>2026-04-14T17:18:25.044Z</time></trkpt><trkpt lat="45.1160755" lon="7.4865195"><ele>370.0</ele><time>2026-04-14T17:18:26.038Z</time></trkpt><trkpt lat="45.1160153" lon="7.4864909"><ele>370.0</ele><time>2026-04-14T17:18:27.043Z</time></trkpt><trkpt lat="45.115908" lon="7.4864357"><ele>370.0</ele><time>2026-04-14T17:18:29.04Z</time></trkpt><trkpt lat="45.1158083" lon="7.4863817"><ele>370.0</ele><time>2026-04-14T17:18:31.046Z</time></trkpt><trkpt lat="45.115707" lon="7.4863549"><ele>370.0</ele><time>2026-04-14T17:18:33.042Z</time></trkpt><trkpt lat="45.1156052" lon="7.4863287"><ele>370.0</ele><time>2026-04-14T17:18:35.045Z</time></trkpt><trkpt lat="45.1154972" lon="7.4862989"><ele>370.5</ele><time>2026-04-14T17:18:37.041Z</time></trkpt><trkpt lat="45.1153913" lon="7.4862583"><ele>371.0</ele><time>2026-04-14T17:18:39.042Z</time></trkpt><trkpt lat="45.1152794" lon="7.4862246"><ele>371.5</ele><time>2026-04-14T17:18:41.033Z</time></trkpt><trkpt lat="45.1151717" lon="7.4861905"><ele>372.0</ele><time>2026-04-14T17:18:43.038Z</time></trkpt><trkpt lat="45.1150564" lon="7.4861484"><ele>372.0</ele><time>2026-04-14T17:18:45.036Z</time></trkpt><trkpt lat="45.114989" lon="7.4861402"><ele>372.0</ele><time>2026-04-14T17:18:46.037Z</time></trkpt><trkpt lat="45.1149253" lon="7.4861264"><ele>372.0</ele><time>2026-04-14T17:18:47.037Z</time></trkpt><trkpt lat="45.1148131" lon="7.486093"><ele>372.0</ele><time>2026-04-14T17:18:49.039Z</time></trkpt><trkpt lat="45.1146909" lon="7.4860565"><ele>372.0</ele><time>2026-04-14T17:18:51.038Z</time></trkpt><trkpt lat="45.1146289" lon="7.4860286"><ele>372.0</ele><time>2026-04-14T17:18:52.053Z</time></trkpt><trkpt lat="45.1145215" lon="7.4859953"><ele>372.40000000000003</ele><time>2026-04-14T17:18:54.04Z</time></trkpt><trkpt lat="45.1144068" lon="7.4859357"><ele>372.8</ele><time>2026-04-14T17:18:56.038Z</time></trkpt><trkpt lat="45.1142936" lon="7.4859119"><ele>373.2</ele><time>2026-04-14T17:18:58.036Z</time></trkpt><trkpt lat="45.1142277" lon="7.4858838"><ele>373.6</ele><time>2026-04-14T17:18:59.04Z</time></trkpt><trkpt lat="45.1141104" lon="7.4858552"><ele>374.0</ele><time>2026-04-14T17:19:01.034Z</time></trkpt><trkpt lat="45.1139963" lon="7.4858203"><ele>374.0</ele><time>2026-04-14T17:19:03.04Z</time></trkpt><trkpt lat="45.1138844" lon="7.4857775"><ele>374.0</ele><time>2026-04-14T17:19:05.043Z</time></trkpt><trkpt lat="45.1137935" lon="7.4857607"><ele>374.0</ele><time>2026-04-14T17:19:07.039Z</time></trkpt><trkpt lat="45.1136868" lon="7.485748"><ele>374.0</ele><time>2026-04-14T17:19:09.03Z</time></trkpt><trkpt lat="45.1135747" lon="7.485729"><ele>374.0</ele><time>2026-04-14T17:19:11.037Z</time></trkpt><trkpt lat="45.1134696" lon="7.4857246"><ele>374.0</ele><time>2026-04-14T17:19:13.03Z</time></trkpt><trkpt lat="45.1133868" lon="7.4856701"><ele>374.0</ele><time>2026-04-14T17:19:15.035Z</time></trkpt><trkpt lat="45.1133128" lon="7.485708"><ele>374.0</ele><time>2026-04-14T17:19:17.033Z</time></trkpt><trkpt lat="45.1132927" lon="7.4858107"><ele>374.0</ele><time>2026-04-14T17:19:19.042Z</time></trkpt><trkpt lat="45.1133412" lon="7.4858941"><ele>374.0</ele><time>2026-04-14T17:19:21.035Z</time></trkpt><trkpt lat="45.1133952" lon="7.4859773"><ele>374.0</ele><time>2026-04-14T17:19:23.045Z</time></trkpt><trkpt lat="45.1134411" lon="7.4860722"><ele>374.0</ele><time>2026-04-14T17:19:25.027Z</time></trkpt><trkpt lat="45.1134196" lon="7.4861902"><ele>374.0</ele><time>2026-04-14T17:19:27.025Z</time></trkpt><trkpt lat="45.1133806" lon="7.4863263"><ele>374.0</ele><time>2026-04-14T17:19:29.034Z</time></trkpt><trkpt lat="45.1133574" lon="7.4864359"><ele>374.0</ele><time>2026-04-14T17:19:31.027Z</time></trkpt><trkpt lat="45.113304" lon="7.4865528"><ele>374.0</ele><time>2026-04-14T17:19:33.037Z</time></trkpt><trkpt lat="45.1132745" lon="7.4866612"><ele>374.1666666666667</ele><time>2026-04-14T17:19:35.037Z</time></trkpt><trkpt lat="45.1132523" lon="7.4867698"><ele>374.33333333333337</ele><time>2026-04-14T17:19:37.045Z</time></trkpt><trkpt lat="45.1132332" lon="7.4868905"><ele>374.5</ele><time>2026-04-14T17:19:39.037Z</time></trkpt><trkpt lat="45.1132054" lon="7.4870125"><ele>374.6666666666667</ele><time>2026-04-14T17:19:41.037Z</time></trkpt><trkpt lat="45.1131895" lon="7.4871333"><ele>374.8333333333333</ele><time>2026-04-14T17:19:43.038Z</time></trkpt><trkpt lat="45.1131603" lon="7.4872474"><ele>375.0</ele><time>2026-04-14T17:19:45.026Z</time></trkpt><trkpt lat="45.1131395" lon="7.4873727"><ele>374.6666666666667</ele><time>2026-04-14T17:19:47.024Z</time></trkpt><trkpt lat="45.1130717" lon="7.4874754"><ele>374.3333333333333</ele><time>2026-04-14T17:19:49.026Z</time></trkpt><trkpt lat="45.1130333" lon="7.4875596"><ele>374.0</ele><time>2026-04-14T17:19:51.027Z</time></trkpt><trkpt lat="45.1129651" lon="7.4876497"><ele>373.66666666666663</ele><time>2026-04-14T17:19:53.033Z</time></trkpt><trkpt lat="45.1129239" lon="7.4877319"><ele>373.3333333333333</ele><time>2026-04-14T17:19:55.026Z</time></trkpt><trkpt lat="45.1128762" lon="7.4878096"><ele>373.0</ele><time>2026-04-14T17:19:57.032Z</time></trkpt><trkpt lat="45.1128259" lon="7.4878966"><ele>373.5</ele><time>2026-04-14T17:19:59.03Z</time></trkpt><trkpt lat="45.1128131" lon="7.4880016"><ele>374.0</ele><time>2026-04-14T17:20:01.021Z</time></trkpt><trkpt lat="45.1128094" lon="7.4881111"><ele>374.5</ele><time>2026-04-14T17:20:03.029Z</time></trkpt><trkpt lat="45.1128065" lon="7.4882367"><ele>375.0</ele><time>2026-04-14T17:20:06.033Z</time></trkpt><trkpt lat="45.1128014" lon="7.488367"><ele>375.5</ele><time>2026-04-14T17:20:09.024Z</time></trkpt><trkpt lat="45.1128" lon="7.4884569"><ele>376.0</ele><time>2026-04-14T17:20:11.03Z</time></trkpt><trkpt lat="45.1128182" lon="7.4885587"><ele>376.0</ele><time>2026-04-14T17:20:14.032Z</time></trkpt><trkpt lat="45.1128297" lon="7.4886607"><ele>376.0</ele><time>2026-04-14T17:20:17.04Z</time></trkpt><trkpt lat="45.1128493" lon="7.4887761"><ele>376.0</ele><time>2026-04-14T17:20:20.024Z</time></trkpt><trkpt lat="45.1128379" lon="7.4888818"><ele>376.0</ele><time>2026-04-14T17:20:23.028Z</time></trkpt><trkpt lat="45.1128292" lon="7.4889817"><ele>376.0</ele><time>2026-04-14T17:20:26.029Z</time></trkpt><trkpt lat="45.1128052" lon="7.4890721"><ele>376.0</ele><time>2026-04-14T17:20:30.054Z</time></trkpt><trkpt lat="45.112735" lon="7.4890646"><ele>376.0</ele><time>2026-04-14T17:20:34.05Z</time></trkpt><trkpt lat="45.1126585" lon="7.4890415"><ele>375.5</ele><time>2026-04-14T17:20:37.051Z</time></trkpt><trkpt lat="45.1125843" lon="7.4890228"><ele>375.0</ele><time>2026-04-14T17:20:40.052Z</time></trkpt><trkpt lat="45.1125185" lon="7.4890175"><ele>374.5</ele><time>2026-04-14T17:20:43.053Z</time></trkpt><trkpt lat="45.1124467" lon="7.4890323"><ele>374.0</ele><time>2026-04-14T17:20:46.054Z</time></trkpt><trkpt lat="45.1123783" lon="7.4890876"><ele>373.5</ele><time>2026-04-14T17:20:50.048Z</time></trkpt><trkpt lat="45.1123097" lon="7.4891107"><ele>373.0</ele><time>2026-04-14T17:20:53.057Z</time></trkpt><trkpt lat="45.1122152" lon="7.4891181"><ele>372.0</ele><time>2026-04-14T17:20:56.058Z</time></trkpt><trkpt lat="45.1121269" lon="7.4890938"><ele>371.0</ele><time>2026-04-14T17:20:59.06Z</time></trkpt><trkpt lat="45.1120435" lon="7.4890564"><ele>370.0</ele><time>2026-04-14T17:21:02.058Z</time></trkpt><trkpt lat="45.1119587" lon="7.4890546"><ele>369.0</ele><time>2026-04-14T17:21:05.06Z</time></trkpt><trkpt lat="45.1118845" lon="7.4890264"><ele>368.0</ele><time>2026-04-14T17:21:07.054Z</time></trkpt><trkpt lat="45.1117973" lon="7.4889863"><ele>367.0</ele><time>2026-04-14T17:21:10.056Z</time></trkpt><trkpt lat="45.111724" lon="7.4889741"><ele>367.0</ele><time>2026-04-14T17:21:12.068Z</time></trkpt><trkpt lat="45.1116483" lon="7.4889537"><ele>367.0</ele><time>2026-04-14T17:21:14.068Z</time></trkpt><trkpt lat="45.1115816" lon="7.4889334"><ele>367.0</ele><time>2026-04-14T17:21:16.064Z</time></trkpt><trkpt lat="45.1115187" lon="7.488925"><ele>367.0</ele><time>2026-04-14T17:21:18.069Z</time></trkpt><trkpt lat="45.1114417" lon="7.4889311"><ele>367.0</ele><time>2026-04-14T17:21:20.066Z</time></trkpt><trkpt lat="45.1113724" lon="7.488915"><ele>367.0</ele><time>2026-04-14T17:21:22.069Z</time></trkpt><trkpt lat="45.1113045" lon="7.4889481"><ele>367.0</ele><time>2026-04-14T17:21:24.066Z</time></trkpt><trkpt lat="45.1112246" lon="7.4889459"><ele>367.16666666666663</ele><time>2026-04-14T17:21:26.072Z</time></trkpt><trkpt lat="45.1111257" lon="7.4889564"><ele>367.3333333333333</ele><time>2026-04-14T17:21:29.065Z</time></trkpt><trkpt lat="45.1110583" lon="7.4889707"><ele>367.5</ele><time>2026-04-14T17:21:31.059Z</time></trkpt><trkpt lat="45.1109867" lon="7.4889792"><ele>367.6666666666667</ele><time>2026-04-14T17:21:33.063Z</time></trkpt><trkpt lat="45.1109191" lon="7.4889934"><ele>367.83333333333337</ele><time>2026-04-14T17:21:35.069Z</time></trkpt><trkpt lat="45.1108464" lon="7.4889952"><ele>368.0</ele><time>2026-04-14T17:21:37.035Z</time></trkpt><trkpt lat="45.1107763" lon="7.4890057"><ele>368.0</ele><time>2026-04-14T17:21:39.038Z</time></trkpt><trkpt lat="45.1106759" lon="7.4890594"><ele>368.0</ele><time>2026-04-14T17:21:41.037Z</time></trkpt><trkpt lat="45.1105833" lon="7.489081"><ele>368.0</ele><time>2026-04-14T17:21:43.037Z</time></trkpt><trkpt lat="45.1104957" lon="7.4890732"><ele>368.0</ele><time>2026-04-14T17:21:45.04Z</time></trkpt><trkpt lat="45.1104165" lon="7.4890606"><ele>368.0</ele><time>2026-04-14T17:21:47.039Z</time></trkpt><trkpt lat="45.1103348" lon="7.4890495"><ele>368.0</ele><time>2026-04-14T17:21:49.041Z</time></trkpt><trkpt lat="45.110264" lon="7.4890585"><ele>368.0</ele><time>2026-04-14T17:21:51.043Z</time></trkpt><trkpt lat="45.1101886" lon="7.4891027"><ele>368.0</ele><time>2026-04-14T17:21:54.043Z</time></trkpt><trkpt lat="45.1101138" lon="7.4891602"><ele>368.0</ele><time>2026-04-14T17:21:57.044Z</time></trkpt><trkpt lat="45.1100514" lon="7.4892536"><ele>368.0</ele><time>2026-04-14T17:22:00.032Z</time></trkpt><trkpt lat="45.1100131" lon="7.4893585"><ele>368.0</ele><time>2026-04-14T17:22:03.032Z</time></trkpt><trkpt lat="45.1100399" lon="7.4894598"><ele>368.0</ele><time>2026-04-14T17:22:06.046Z</time></trkpt><trkpt lat="45.1100621" lon="7.4895498"><ele>368.0</ele><time>2026-04-14T17:22:08.035Z</time></trkpt><trkpt lat="45.110103" lon="7.4896248"><ele>368.0</ele><time>2026-04-14T17:22:10.047Z</time></trkpt><trkpt lat="45.1101654" lon="7.4897067"><ele>368.0</ele><time>2026-04-14T17:22:13.035Z</time></trkpt><trkpt lat="45.110201" lon="7.4897884"><ele>368.0</ele><time>2026-04-14T17:23:06.039Z</time></trkpt><trkpt lat="45.1102687" lon="7.4897438"><ele>368.0</ele><time>2026-04-14T17:24:05.013Z</time></trkpt><trkpt lat="45.1103153" lon="7.489668"><ele>368.0</ele><time>2026-04-14T17:24:10.949Z</time></trkpt><trkpt lat="45.1100805" lon="7.48937"><ele>368.0</ele><time>2026-04-14T17:24:22.938Z</time></trkpt></trkseg></trk></gpx>